<?xml version="1.0" encoding="UTF-8" standalone="no" ?>
<gpx xmlns="http://www.topografix.com/GPX/1/1" xmlns:xsi="http://www.w3.org/2001/XMLSchema-instance" xsi:schemaLocation="http://www.topografix.com/GPX/1/1 http://www.topografix.com/GPX/1/1/gpx.xsd" version="1.1" creator="VisuGPX - https://www.visugpx.com">
  <metadata>
    <name>83-Me-Montauroux</name>
    <desc><![CDATA[83-Me-Montauroux : la Siagne
2023-04-26]]></desc>
  </metadata>
  <trk>
    <name><![CDATA[2023-04-26-Montauroux Siagne]]></name>
    <extensions>
      <line xmlns="http://www.topografix.com/GPX/gpx_style/0/2">
        <width>3</width>
      </line>
    </extensions>
    <trkseg>
      <trkpt lat="43.6333" lon="6.78214">
        <ele>385.7</ele>
        <time>2023-04-26T12:53:50.059Z</time>
      </trkpt>
      <trkpt lat="43.63463" lon="6.78216">
        <ele>385.7</ele>
        <time>2023-04-26T12:56:44.790Z</time>
      </trkpt>
      <trkpt lat="43.63521" lon="6.78241">
        <ele>379.8</ele>
        <time>2023-04-26T12:58:04.308Z</time>
      </trkpt>
      <trkpt lat="43.63587" lon="6.78267">
        <ele>377</ele>
        <time>2023-04-26T12:59:33.779Z</time>
      </trkpt>
      <trkpt lat="43.6365" lon="6.78305">
        <ele>379.5</ele>
        <time>2023-04-26T13:01:02.867Z</time>
      </trkpt>
      <trkpt lat="43.63713" lon="6.78321">
        <ele>379</ele>
        <time>2023-04-26T13:02:26.409Z</time>
      </trkpt>
      <trkpt lat="43.63744" lon="6.78392">
        <ele>363.7</ele>
        <time>2023-04-26T13:03:47.000Z</time>
      </trkpt>
      <trkpt lat="43.63774" lon="6.78382">
        <ele>367</ele>
        <time>2023-04-26T13:04:03.000Z</time>
      </trkpt>
      <trkpt lat="43.63833" lon="6.78367">
        <ele>372</ele>
        <time>2023-04-26T13:04:40.000Z</time>
      </trkpt>
      <trkpt lat="43.63865" lon="6.7836">
        <ele>373</ele>
        <time>2023-04-26T13:05:02.000Z</time>
      </trkpt>
      <trkpt lat="43.63888" lon="6.78348">
        <ele>374</ele>
        <time>2023-04-26T13:05:24.000Z</time>
      </trkpt>
      <trkpt lat="43.63924" lon="6.78334">
        <ele>375</ele>
        <time>2023-04-26T13:05:41.000Z</time>
      </trkpt>
      <trkpt lat="43.63935" lon="6.78338">
        <ele>375</ele>
        <time>2023-04-26T13:05:59.000Z</time>
      </trkpt>
      <trkpt lat="43.63942" lon="6.78347">
        <ele>376.2</ele>
        <time>2023-04-26T13:06:09.000Z</time>
      </trkpt>
      <trkpt lat="43.63941" lon="6.78358">
        <ele>376.9</ele>
        <time>2023-04-26T13:06:19.000Z</time>
      </trkpt>
      <trkpt lat="43.63942" lon="6.78362">
        <ele>376.6</ele>
        <time>2023-04-26T13:06:29.000Z</time>
      </trkpt>
      <trkpt lat="43.63941" lon="6.78368">
        <ele>376.8</ele>
        <time>2023-04-26T13:06:39.000Z</time>
      </trkpt>
      <trkpt lat="43.63943" lon="6.78379">
        <ele>376.8</ele>
        <time>2023-04-26T13:06:49.000Z</time>
      </trkpt>
      <trkpt lat="43.63941" lon="6.78385">
        <ele>376.6</ele>
        <time>2023-04-26T13:06:59.000Z</time>
      </trkpt>
      <trkpt lat="43.63941" lon="6.78385">
        <ele>376.6</ele>
        <time>2023-04-26T13:07:09.000Z</time>
      </trkpt>
      <trkpt lat="43.63952" lon="6.78402">
        <ele>376.7</ele>
        <time>2023-04-26T13:07:19.000Z</time>
      </trkpt>
      <trkpt lat="43.63957" lon="6.78411">
        <ele>376.4</ele>
        <time>2023-04-26T13:07:29.000Z</time>
      </trkpt>
      <trkpt lat="43.63949" lon="6.78416">
        <ele>376.6</ele>
        <time>2023-04-26T13:07:39.000Z</time>
      </trkpt>
      <trkpt lat="43.6395" lon="6.78429">
        <ele>376.5</ele>
        <time>2023-04-26T13:07:49.000Z</time>
      </trkpt>
      <trkpt lat="43.63953" lon="6.78442">
        <ele>376.3</ele>
        <time>2023-04-26T13:07:59.000Z</time>
      </trkpt>
      <trkpt lat="43.63955" lon="6.78461">
        <ele>376.8</ele>
        <time>2023-04-26T13:08:09.000Z</time>
      </trkpt>
      <trkpt lat="43.63958" lon="6.78477">
        <ele>376.3</ele>
        <time>2023-04-26T13:08:19.000Z</time>
      </trkpt>
      <trkpt lat="43.63959" lon="6.78493">
        <ele>376.2</ele>
        <time>2023-04-26T13:08:29.000Z</time>
      </trkpt>
      <trkpt lat="43.6396" lon="6.78508">
        <ele>376.4</ele>
        <time>2023-04-26T13:08:39.000Z</time>
      </trkpt>
      <trkpt lat="43.63958" lon="6.78514">
        <ele>376.3</ele>
        <time>2023-04-26T13:08:49.000Z</time>
      </trkpt>
      <trkpt lat="43.63963" lon="6.78536">
        <ele>376.5</ele>
        <time>2023-04-26T13:08:59.000Z</time>
      </trkpt>
      <trkpt lat="43.63964" lon="6.78551">
        <ele>376.5</ele>
        <time>2023-04-26T13:09:09.000Z</time>
      </trkpt>
      <trkpt lat="43.63961" lon="6.78566">
        <ele>376.5</ele>
        <time>2023-04-26T13:09:19.000Z</time>
      </trkpt>
      <trkpt lat="43.63964" lon="6.78583">
        <ele>376.1</ele>
        <time>2023-04-26T13:09:29.000Z</time>
      </trkpt>
      <trkpt lat="43.63966" lon="6.78601">
        <ele>375</ele>
        <time>2023-04-26T13:09:40.000Z</time>
      </trkpt>
      <trkpt lat="43.63965" lon="6.7862">
        <ele>375</ele>
        <time>2023-04-26T13:09:51.000Z</time>
      </trkpt>
      <trkpt lat="43.63968" lon="6.78627">
        <ele>375.3</ele>
        <time>2023-04-26T13:10:01.000Z</time>
      </trkpt>
      <trkpt lat="43.63968" lon="6.78643">
        <ele>374.9</ele>
        <time>2023-04-26T13:10:11.000Z</time>
      </trkpt>
      <trkpt lat="43.63965" lon="6.78653">
        <ele>374.4</ele>
        <time>2023-04-26T13:10:21.000Z</time>
      </trkpt>
      <trkpt lat="43.63966" lon="6.7867">
        <ele>373.7</ele>
        <time>2023-04-26T13:10:31.000Z</time>
      </trkpt>
      <trkpt lat="43.63968" lon="6.78681">
        <ele>373</ele>
        <time>2023-04-26T13:10:41.000Z</time>
      </trkpt>
      <trkpt lat="43.63971" lon="6.78688">
        <ele>372.5</ele>
        <time>2023-04-26T13:10:53.000Z</time>
      </trkpt>
      <trkpt lat="43.63975" lon="6.78701">
        <ele>371.4</ele>
        <time>2023-04-26T13:11:03.000Z</time>
      </trkpt>
      <trkpt lat="43.63979" lon="6.78719">
        <ele>370.7</ele>
        <time>2023-04-26T13:11:13.000Z</time>
      </trkpt>
      <trkpt lat="43.63977" lon="6.78739">
        <ele>370.2</ele>
        <time>2023-04-26T13:11:23.000Z</time>
      </trkpt>
      <trkpt lat="43.63979" lon="6.78749">
        <ele>369.2</ele>
        <time>2023-04-26T13:11:33.000Z</time>
      </trkpt>
      <trkpt lat="43.63983" lon="6.78759">
        <ele>367.8</ele>
        <time>2023-04-26T13:11:43.000Z</time>
      </trkpt>
      <trkpt lat="43.6399" lon="6.78766">
        <ele>367.1</ele>
        <time>2023-04-26T13:11:53.000Z</time>
      </trkpt>
      <trkpt lat="43.63997" lon="6.78767">
        <ele>365.9</ele>
        <time>2023-04-26T13:12:03.000Z</time>
      </trkpt>
      <trkpt lat="43.64004" lon="6.78767">
        <ele>364.8</ele>
        <time>2023-04-26T13:12:13.000Z</time>
      </trkpt>
      <trkpt lat="43.64008" lon="6.78766">
        <ele>363.3</ele>
        <time>2023-04-26T13:12:23.000Z</time>
      </trkpt>
      <trkpt lat="43.64012" lon="6.78764">
        <ele>363.5</ele>
        <time>2023-04-26T13:12:33.000Z</time>
      </trkpt>
      <trkpt lat="43.6402" lon="6.78763">
        <ele>362.1</ele>
        <time>2023-04-26T13:12:43.000Z</time>
      </trkpt>
      <trkpt lat="43.64029" lon="6.78767">
        <ele>360.8</ele>
        <time>2023-04-26T13:12:53.000Z</time>
      </trkpt>
      <trkpt lat="43.64031" lon="6.78752">
        <ele>358</ele>
        <time>2023-04-26T13:13:05.000Z</time>
      </trkpt>
      <trkpt lat="43.64036" lon="6.78749">
        <ele>357.5</ele>
        <time>2023-04-26T13:13:15.000Z</time>
      </trkpt>
      <trkpt lat="43.64033" lon="6.78749">
        <ele>356.1</ele>
        <time>2023-04-26T13:13:25.000Z</time>
      </trkpt>
      <trkpt lat="43.64022" lon="6.78751">
        <ele>354.7</ele>
        <time>2023-04-26T13:13:35.000Z</time>
      </trkpt>
      <trkpt lat="43.64017" lon="6.78757">
        <ele>354</ele>
        <time>2023-04-26T13:13:45.000Z</time>
      </trkpt>
      <trkpt lat="43.64018" lon="6.78767">
        <ele>353</ele>
        <time>2023-04-26T13:13:55.000Z</time>
      </trkpt>
      <trkpt lat="43.6402" lon="6.78774">
        <ele>352</ele>
        <time>2023-04-26T13:14:07.000Z</time>
      </trkpt>
      <trkpt lat="43.64018" lon="6.78785">
        <ele>353</ele>
        <time>2023-04-26T13:14:18.000Z</time>
      </trkpt>
      <trkpt lat="43.64018" lon="6.78793">
        <ele>353.1</ele>
        <time>2023-04-26T13:14:28.000Z</time>
      </trkpt>
      <trkpt lat="43.64019" lon="6.78798">
        <ele>352.4</ele>
        <time>2023-04-26T13:14:38.000Z</time>
      </trkpt>
      <trkpt lat="43.64021" lon="6.78802">
        <ele>351.1</ele>
        <time>2023-04-26T13:14:48.000Z</time>
      </trkpt>
      <trkpt lat="43.64024" lon="6.788">
        <ele>349.5</ele>
        <time>2023-04-26T13:14:58.000Z</time>
      </trkpt>
      <trkpt lat="43.64026" lon="6.78801">
        <ele>348.1</ele>
        <time>2023-04-26T13:15:08.000Z</time>
      </trkpt>
      <trkpt lat="43.6403" lon="6.78794">
        <ele>346.9</ele>
        <time>2023-04-26T13:15:18.000Z</time>
      </trkpt>
      <trkpt lat="43.64035" lon="6.7879">
        <ele>345.8</ele>
        <time>2023-04-26T13:15:28.000Z</time>
      </trkpt>
      <trkpt lat="43.64044" lon="6.78789">
        <ele>344.6</ele>
        <time>2023-04-26T13:15:38.000Z</time>
      </trkpt>
      <trkpt lat="43.6405" lon="6.78789">
        <ele>343</ele>
        <time>2023-04-26T13:15:48.000Z</time>
      </trkpt>
      <trkpt lat="43.64055" lon="6.78777">
        <ele>343.6</ele>
        <time>2023-04-26T13:15:58.000Z</time>
      </trkpt>
      <trkpt lat="43.64065" lon="6.7877">
        <ele>342.6</ele>
        <time>2023-04-26T13:16:08.000Z</time>
      </trkpt>
      <trkpt lat="43.64071" lon="6.78778">
        <ele>341</ele>
        <time>2023-04-26T13:16:18.000Z</time>
      </trkpt>
      <trkpt lat="43.64076" lon="6.78775">
        <ele>339.4</ele>
        <time>2023-04-26T13:16:28.000Z</time>
      </trkpt>
      <trkpt lat="43.6408" lon="6.78772">
        <ele>338.3</ele>
        <time>2023-04-26T13:16:38.000Z</time>
      </trkpt>
      <trkpt lat="43.64086" lon="6.78771">
        <ele>338.6</ele>
        <time>2023-04-26T13:16:49.000Z</time>
      </trkpt>
      <trkpt lat="43.64085" lon="6.78767">
        <ele>338.2</ele>
        <time>2023-04-26T13:16:59.000Z</time>
      </trkpt>
      <trkpt lat="43.64083" lon="6.78766">
        <ele>336.3</ele>
        <time>2023-04-26T13:17:09.000Z</time>
      </trkpt>
      <trkpt lat="43.64082" lon="6.78773">
        <ele>334.5</ele>
        <time>2023-04-26T13:17:19.000Z</time>
      </trkpt>
      <trkpt lat="43.6409" lon="6.78785">
        <ele>332.9</ele>
        <time>2023-04-26T13:17:29.000Z</time>
      </trkpt>
      <trkpt lat="43.64091" lon="6.78792">
        <ele>332.1</ele>
        <time>2023-04-26T13:17:39.000Z</time>
      </trkpt>
      <trkpt lat="43.64094" lon="6.78793">
        <ele>332.1</ele>
        <time>2023-04-26T13:17:49.000Z</time>
      </trkpt>
      <trkpt lat="43.64098" lon="6.78794">
        <ele>331.7</ele>
        <time>2023-04-26T13:17:59.000Z</time>
      </trkpt>
      <trkpt lat="43.64104" lon="6.78792">
        <ele>330.7</ele>
        <time>2023-04-26T13:18:09.000Z</time>
      </trkpt>
      <trkpt lat="43.64113" lon="6.78789">
        <ele>329.8</ele>
        <time>2023-04-26T13:18:19.000Z</time>
      </trkpt>
      <trkpt lat="43.64119" lon="6.78785">
        <ele>329.3</ele>
        <time>2023-04-26T13:18:29.000Z</time>
      </trkpt>
      <trkpt lat="43.64125" lon="6.78781">
        <ele>327.6</ele>
        <time>2023-04-26T13:18:39.000Z</time>
      </trkpt>
      <trkpt lat="43.64133" lon="6.78772">
        <ele>326.3</ele>
        <time>2023-04-26T13:18:49.000Z</time>
      </trkpt>
      <trkpt lat="43.64138" lon="6.78766">
        <ele>324.8</ele>
        <time>2023-04-26T13:18:59.000Z</time>
      </trkpt>
      <trkpt lat="43.64147" lon="6.78763">
        <ele>323.5</ele>
        <time>2023-04-26T13:19:09.000Z</time>
      </trkpt>
      <trkpt lat="43.64157" lon="6.78753">
        <ele>322.1</ele>
        <time>2023-04-26T13:19:19.000Z</time>
      </trkpt>
      <trkpt lat="43.64164" lon="6.78749">
        <ele>320.6</ele>
        <time>2023-04-26T13:19:29.000Z</time>
      </trkpt>
      <trkpt lat="43.64172" lon="6.78739">
        <ele>319.6</ele>
        <time>2023-04-26T13:19:39.000Z</time>
      </trkpt>
      <trkpt lat="43.6418" lon="6.78729">
        <ele>318.3</ele>
        <time>2023-04-26T13:19:49.000Z</time>
      </trkpt>
      <trkpt lat="43.64185" lon="6.78724">
        <ele>316.9</ele>
        <time>2023-04-26T13:19:59.000Z</time>
      </trkpt>
      <trkpt lat="43.6419" lon="6.78718">
        <ele>315.2</ele>
        <time>2023-04-26T13:20:09.000Z</time>
      </trkpt>
      <trkpt lat="43.64199" lon="6.78708">
        <ele>314.2</ele>
        <time>2023-04-26T13:20:19.000Z</time>
      </trkpt>
      <trkpt lat="43.64205" lon="6.78702">
        <ele>312.9</ele>
        <time>2023-04-26T13:20:29.000Z</time>
      </trkpt>
      <trkpt lat="43.64208" lon="6.78699">
        <ele>311.6</ele>
        <time>2023-04-26T13:20:39.000Z</time>
      </trkpt>
      <trkpt lat="43.64215" lon="6.78683">
        <ele>310.9</ele>
        <time>2023-04-26T13:20:49.000Z</time>
      </trkpt>
      <trkpt lat="43.64217" lon="6.78671">
        <ele>310</ele>
        <time>2023-04-26T13:21:02.000Z</time>
      </trkpt>
      <trkpt lat="43.64216" lon="6.78673">
        <ele>310.8</ele>
        <time>2023-04-26T13:21:12.000Z</time>
      </trkpt>
      <trkpt lat="43.64218" lon="6.78676">
        <ele>310.9</ele>
        <time>2023-04-26T13:21:22.000Z</time>
      </trkpt>
      <trkpt lat="43.64219" lon="6.78683">
        <ele>310.5</ele>
        <time>2023-04-26T13:21:32.000Z</time>
      </trkpt>
      <trkpt lat="43.64225" lon="6.78682">
        <ele>308.8</ele>
        <time>2023-04-26T13:21:42.000Z</time>
      </trkpt>
      <trkpt lat="43.64231" lon="6.78683">
        <ele>306.7</ele>
        <time>2023-04-26T13:21:52.000Z</time>
      </trkpt>
      <trkpt lat="43.6424" lon="6.78688">
        <ele>304.7</ele>
        <time>2023-04-26T13:22:02.000Z</time>
      </trkpt>
      <trkpt lat="43.64247" lon="6.78685">
        <ele>303.2</ele>
        <time>2023-04-26T13:22:12.000Z</time>
      </trkpt>
      <trkpt lat="43.64254" lon="6.78679">
        <ele>301.7</ele>
        <time>2023-04-26T13:22:22.000Z</time>
      </trkpt>
      <trkpt lat="43.6426" lon="6.78673">
        <ele>300.1</ele>
        <time>2023-04-26T13:22:34.000Z</time>
      </trkpt>
      <trkpt lat="43.64261" lon="6.78667">
        <ele>299.4</ele>
        <time>2023-04-26T13:22:44.000Z</time>
      </trkpt>
      <trkpt lat="43.64261" lon="6.78672">
        <ele>298</ele>
        <time>2023-04-26T13:23:03.000Z</time>
      </trkpt>
      <trkpt lat="43.64274" lon="6.78662">
        <ele>298.2</ele>
        <time>2023-04-26T13:23:13.000Z</time>
      </trkpt>
      <trkpt lat="43.64274" lon="6.78657">
        <ele>297.1</ele>
        <time>2023-04-26T13:23:23.000Z</time>
      </trkpt>
      <trkpt lat="43.64282" lon="6.7866">
        <ele>295.8</ele>
        <time>2023-04-26T13:23:33.000Z</time>
      </trkpt>
      <trkpt lat="43.64289" lon="6.78653">
        <ele>294.3</ele>
        <time>2023-04-26T13:23:43.000Z</time>
      </trkpt>
      <trkpt lat="43.64295" lon="6.78649">
        <ele>293.2</ele>
        <time>2023-04-26T13:23:53.000Z</time>
      </trkpt>
      <trkpt lat="43.643" lon="6.78644">
        <ele>292.1</ele>
        <time>2023-04-26T13:24:03.000Z</time>
      </trkpt>
      <trkpt lat="43.64305" lon="6.78644">
        <ele>290.8</ele>
        <time>2023-04-26T13:24:13.000Z</time>
      </trkpt>
      <trkpt lat="43.64304" lon="6.78647">
        <ele>289.2</ele>
        <time>2023-04-26T13:24:23.000Z</time>
      </trkpt>
      <trkpt lat="43.64302" lon="6.78645">
        <ele>288.1</ele>
        <time>2023-04-26T13:24:33.000Z</time>
      </trkpt>
      <trkpt lat="43.64307" lon="6.7865">
        <ele>286.6</ele>
        <time>2023-04-26T13:24:43.000Z</time>
      </trkpt>
      <trkpt lat="43.64311" lon="6.78652">
        <ele>285.2</ele>
        <time>2023-04-26T13:24:53.000Z</time>
      </trkpt>
      <trkpt lat="43.64316" lon="6.78654">
        <ele>283.9</ele>
        <time>2023-04-26T13:25:05.000Z</time>
      </trkpt>
      <trkpt lat="43.64322" lon="6.78654">
        <ele>282.3</ele>
        <time>2023-04-26T13:25:16.000Z</time>
      </trkpt>
      <trkpt lat="43.64321" lon="6.78649">
        <ele>281.1</ele>
        <time>2023-04-26T13:25:26.000Z</time>
      </trkpt>
      <trkpt lat="43.64318" lon="6.78648">
        <ele>279.5</ele>
        <time>2023-04-26T13:25:36.000Z</time>
      </trkpt>
      <trkpt lat="43.64316" lon="6.78647">
        <ele>278.2</ele>
        <time>2023-04-26T13:25:46.000Z</time>
      </trkpt>
      <trkpt lat="43.64311" lon="6.78653">
        <ele>276.7</ele>
        <time>2023-04-26T13:25:56.000Z</time>
      </trkpt>
      <trkpt lat="43.64311" lon="6.78662">
        <ele>275.1</ele>
        <time>2023-04-26T13:26:06.000Z</time>
      </trkpt>
      <trkpt lat="43.64301" lon="6.78667">
        <ele>274.8</ele>
        <time>2023-04-26T13:26:18.000Z</time>
      </trkpt>
      <trkpt lat="43.64298" lon="6.78674">
        <ele>275</ele>
        <time>2023-04-26T13:26:29.000Z</time>
      </trkpt>
      <trkpt lat="43.64293" lon="6.78679">
        <ele>275.2</ele>
        <time>2023-04-26T13:26:39.000Z</time>
      </trkpt>
      <trkpt lat="43.64291" lon="6.78683">
        <ele>274.4</ele>
        <time>2023-04-26T13:26:49.000Z</time>
      </trkpt>
      <trkpt lat="43.64289" lon="6.7868">
        <ele>274</ele>
        <time>2023-04-26T13:26:59.000Z</time>
      </trkpt>
      <trkpt lat="43.6429" lon="6.78686">
        <ele>274.2</ele>
        <time>2023-04-26T13:27:10.000Z</time>
      </trkpt>
      <trkpt lat="43.64285" lon="6.78686">
        <ele>273.6</ele>
        <time>2023-04-26T13:27:25.000Z</time>
      </trkpt>
      <trkpt lat="43.64288" lon="6.78693">
        <ele>273.2</ele>
        <time>2023-04-26T13:27:35.000Z</time>
      </trkpt>
      <trkpt lat="43.64289" lon="6.78692">
        <ele>272.8</ele>
        <time>2023-04-26T13:27:45.000Z</time>
      </trkpt>
      <trkpt lat="43.64289" lon="6.7869">
        <ele>272.9</ele>
        <time>2023-04-26T13:27:55.000Z</time>
      </trkpt>
      <trkpt lat="43.64289" lon="6.78689">
        <ele>272.9</ele>
        <time>2023-04-26T13:28:05.000Z</time>
      </trkpt>
      <trkpt lat="43.64288" lon="6.78688">
        <ele>272.4</ele>
        <time>2023-04-26T13:28:15.000Z</time>
      </trkpt>
      <trkpt lat="43.64287" lon="6.78689">
        <ele>271.8</ele>
        <time>2023-04-26T13:28:25.000Z</time>
      </trkpt>
      <trkpt lat="43.64288" lon="6.78693">
        <ele>270.6</ele>
        <time>2023-04-26T13:28:35.000Z</time>
      </trkpt>
      <trkpt lat="43.64285" lon="6.78703">
        <ele>267.7</ele>
        <time>2023-04-26T13:28:47.000Z</time>
      </trkpt>
      <trkpt lat="43.6428" lon="6.7871">
        <ele>266.3</ele>
        <time>2023-04-26T13:28:57.000Z</time>
      </trkpt>
      <trkpt lat="43.6428" lon="6.78709">
        <ele>264</ele>
        <time>2023-04-26T13:29:08.000Z</time>
      </trkpt>
      <trkpt lat="43.64277" lon="6.78714">
        <ele>263</ele>
        <time>2023-04-26T13:29:19.000Z</time>
      </trkpt>
      <trkpt lat="43.64277" lon="6.78726">
        <ele>262.8</ele>
        <time>2023-04-26T13:29:30.000Z</time>
      </trkpt>
      <trkpt lat="43.64275" lon="6.78727">
        <ele>262.4</ele>
        <time>2023-04-26T13:29:40.000Z</time>
      </trkpt>
      <trkpt lat="43.64273" lon="6.78734">
        <ele>260.5</ele>
        <time>2023-04-26T13:29:50.000Z</time>
      </trkpt>
      <trkpt lat="43.64272" lon="6.78738">
        <ele>258.9</ele>
        <time>2023-04-26T13:30:00.000Z</time>
      </trkpt>
      <trkpt lat="43.64274" lon="6.78745">
        <ele>256.7</ele>
        <time>2023-04-26T13:30:10.000Z</time>
      </trkpt>
      <trkpt lat="43.64274" lon="6.78748">
        <ele>255.1</ele>
        <time>2023-04-26T13:30:20.000Z</time>
      </trkpt>
      <trkpt lat="43.64276" lon="6.78752">
        <ele>253.8</ele>
        <time>2023-04-26T13:30:30.000Z</time>
      </trkpt>
      <trkpt lat="43.6427" lon="6.78757">
        <ele>252.3</ele>
        <time>2023-04-26T13:30:40.000Z</time>
      </trkpt>
      <trkpt lat="43.64269" lon="6.78763">
        <ele>251</ele>
        <time>2023-04-26T13:30:50.000Z</time>
      </trkpt>
      <trkpt lat="43.64272" lon="6.7877">
        <ele>248</ele>
        <time>2023-04-26T13:31:01.000Z</time>
      </trkpt>
      <trkpt lat="43.64276" lon="6.78772">
        <ele>247.2</ele>
        <time>2023-04-26T13:31:13.000Z</time>
      </trkpt>
      <trkpt lat="43.64275" lon="6.7878">
        <ele>246.5</ele>
        <time>2023-04-26T13:31:23.000Z</time>
      </trkpt>
      <trkpt lat="43.64275" lon="6.78785">
        <ele>245.5</ele>
        <time>2023-04-26T13:31:33.000Z</time>
      </trkpt>
      <trkpt lat="43.64275" lon="6.78782">
        <ele>244</ele>
        <time>2023-04-26T13:31:43.000Z</time>
      </trkpt>
      <trkpt lat="43.64275" lon="6.78785">
        <ele>242.8</ele>
        <time>2023-04-26T13:31:53.000Z</time>
      </trkpt>
      <trkpt lat="43.64269" lon="6.78786">
        <ele>241.3</ele>
        <time>2023-04-26T13:32:03.000Z</time>
      </trkpt>
      <trkpt lat="43.64268" lon="6.78795">
        <ele>240</ele>
        <time>2023-04-26T13:32:13.000Z</time>
      </trkpt>
      <trkpt lat="43.64261" lon="6.78807">
        <ele>239.1</ele>
        <time>2023-04-26T13:32:23.000Z</time>
      </trkpt>
      <trkpt lat="43.64256" lon="6.78803">
        <ele>238.5</ele>
        <time>2023-04-26T13:32:33.000Z</time>
      </trkpt>
      <trkpt lat="43.64248" lon="6.78801">
        <ele>237</ele>
        <time>2023-04-26T13:32:43.000Z</time>
      </trkpt>
      <trkpt lat="43.64248" lon="6.78805">
        <ele>235</ele>
        <time>2023-04-26T13:32:53.000Z</time>
      </trkpt>
      <trkpt lat="43.64254" lon="6.7881">
        <ele>234.7</ele>
        <time>2023-04-26T13:33:03.000Z</time>
      </trkpt>
      <trkpt lat="43.64252" lon="6.78821">
        <ele>233.2</ele>
        <time>2023-04-26T13:33:13.000Z</time>
      </trkpt>
      <trkpt lat="43.64244" lon="6.78826">
        <ele>231.9</ele>
        <time>2023-04-26T13:33:23.000Z</time>
      </trkpt>
      <trkpt lat="43.64236" lon="6.78837">
        <ele>230.8</ele>
        <time>2023-04-26T13:33:33.000Z</time>
      </trkpt>
      <trkpt lat="43.64235" lon="6.78852">
        <ele>229.4</ele>
        <time>2023-04-26T13:33:43.000Z</time>
      </trkpt>
      <trkpt lat="43.64238" lon="6.78877">
        <ele>227.7</ele>
        <time>2023-04-26T13:33:54.000Z</time>
      </trkpt>
      <trkpt lat="43.64236" lon="6.78887">
        <ele>226.5</ele>
        <time>2023-04-26T13:34:04.000Z</time>
      </trkpt>
      <trkpt lat="43.64234" lon="6.78896">
        <ele>225.5</ele>
        <time>2023-04-26T13:34:14.000Z</time>
      </trkpt>
      <trkpt lat="43.64233" lon="6.789">
        <ele>224.4</ele>
        <time>2023-04-26T13:34:24.000Z</time>
      </trkpt>
      <trkpt lat="43.64231" lon="6.7891">
        <ele>223</ele>
        <time>2023-04-26T13:34:34.000Z</time>
      </trkpt>
      <trkpt lat="43.64228" lon="6.78916">
        <ele>221.5</ele>
        <time>2023-04-26T13:34:44.000Z</time>
      </trkpt>
      <trkpt lat="43.64227" lon="6.78921">
        <ele>219.9</ele>
        <time>2023-04-26T13:34:54.000Z</time>
      </trkpt>
      <trkpt lat="43.64223" lon="6.78928">
        <ele>218.3</ele>
        <time>2023-04-26T13:35:04.000Z</time>
      </trkpt>
      <trkpt lat="43.64222" lon="6.78933">
        <ele>217.4</ele>
        <time>2023-04-26T13:35:14.000Z</time>
      </trkpt>
      <trkpt lat="43.64219" lon="6.78936">
        <ele>216.8</ele>
        <time>2023-04-26T13:35:24.000Z</time>
      </trkpt>
      <trkpt lat="43.64219" lon="6.78941">
        <ele>215.7</ele>
        <time>2023-04-26T13:35:34.000Z</time>
      </trkpt>
      <trkpt lat="43.64224" lon="6.78942">
        <ele>214.9</ele>
        <time>2023-04-26T13:35:44.000Z</time>
      </trkpt>
      <trkpt lat="43.64219" lon="6.78948">
        <ele>213.1</ele>
        <time>2023-04-26T13:35:54.000Z</time>
      </trkpt>
      <trkpt lat="43.6422" lon="6.78958">
        <ele>209.7</ele>
        <time>2023-04-26T13:36:04.000Z</time>
      </trkpt>
      <trkpt lat="43.64227" lon="6.78962">
        <ele>206</ele>
        <time>2023-04-26T13:36:14.000Z</time>
      </trkpt>
      <trkpt lat="43.64232" lon="6.78974">
        <ele>202.3</ele>
        <time>2023-04-26T13:36:24.000Z</time>
      </trkpt>
      <trkpt lat="43.6424" lon="6.78984">
        <ele>198</ele>
        <time>2023-04-26T13:36:34.000Z</time>
      </trkpt>
      <trkpt lat="43.64241" lon="6.7897">
        <ele>196.2</ele>
        <time>2023-04-26T13:36:44.000Z</time>
      </trkpt>
      <trkpt lat="43.64246" lon="6.78958">
        <ele>196.1</ele>
        <time>2023-04-26T13:36:54.000Z</time>
      </trkpt>
      <trkpt lat="43.64248" lon="6.78959">
        <ele>195.9</ele>
        <time>2023-04-26T13:37:04.000Z</time>
      </trkpt>
      <trkpt lat="43.64249" lon="6.78962">
        <ele>195.7</ele>
        <time>2023-04-26T13:37:14.000Z</time>
      </trkpt>
      <trkpt lat="43.64248" lon="6.78962">
        <ele>195.7</ele>
        <time>2023-04-26T13:37:24.000Z</time>
      </trkpt>
      <trkpt lat="43.64247" lon="6.78962">
        <ele>195.6</ele>
        <time>2023-04-26T13:37:34.000Z</time>
      </trkpt>
      <trkpt lat="43.64247" lon="6.78962">
        <ele>195.5</ele>
        <time>2023-04-26T13:37:44.000Z</time>
      </trkpt>
      <trkpt lat="43.64247" lon="6.78964">
        <ele>195.5</ele>
        <time>2023-04-26T13:37:54.000Z</time>
      </trkpt>
      <trkpt lat="43.64247" lon="6.78964">
        <ele>195.4</ele>
        <time>2023-04-26T13:38:04.000Z</time>
      </trkpt>
      <trkpt lat="43.64247" lon="6.78965">
        <ele>195.2</ele>
        <time>2023-04-26T13:38:14.000Z</time>
      </trkpt>
      <trkpt lat="43.64248" lon="6.78965">
        <ele>195.2</ele>
        <time>2023-04-26T13:38:24.000Z</time>
      </trkpt>
      <trkpt lat="43.64249" lon="6.78966">
        <ele>194.5</ele>
        <time>2023-04-26T13:38:34.000Z</time>
      </trkpt>
      <trkpt lat="43.64252" lon="6.78973">
        <ele>192.6</ele>
        <time>2023-04-26T13:38:44.000Z</time>
      </trkpt>
      <trkpt lat="43.64253" lon="6.78981">
        <ele>191.1</ele>
        <time>2023-04-26T13:38:54.000Z</time>
      </trkpt>
      <trkpt lat="43.64256" lon="6.78981">
        <ele>189.5</ele>
        <time>2023-04-26T13:39:04.000Z</time>
      </trkpt>
      <trkpt lat="43.64259" lon="6.78986">
        <ele>189</ele>
        <time>2023-04-26T13:39:14.000Z</time>
      </trkpt>
      <trkpt lat="43.64265" lon="6.78985">
        <ele>189</ele>
        <time>2023-04-26T13:39:24.000Z</time>
      </trkpt>
      <trkpt lat="43.64268" lon="6.78982">
        <ele>188.8</ele>
        <time>2023-04-26T13:39:34.000Z</time>
      </trkpt>
      <trkpt lat="43.64271" lon="6.78983">
        <ele>188.8</ele>
        <time>2023-04-26T13:39:44.000Z</time>
      </trkpt>
      <trkpt lat="43.64273" lon="6.7899">
        <ele>188.3</ele>
        <time>2023-04-26T13:39:54.000Z</time>
      </trkpt>
      <trkpt lat="43.64276" lon="6.78999">
        <ele>186.6</ele>
        <time>2023-04-26T13:40:04.000Z</time>
      </trkpt>
      <trkpt lat="43.6428" lon="6.79007">
        <ele>185.9</ele>
        <time>2023-04-26T13:40:14.000Z</time>
      </trkpt>
      <trkpt lat="43.64281" lon="6.79013">
        <ele>185.2</ele>
        <time>2023-04-26T13:40:24.000Z</time>
      </trkpt>
      <trkpt lat="43.64284" lon="6.79016">
        <ele>185.1</ele>
        <time>2023-04-26T13:40:34.000Z</time>
      </trkpt>
      <trkpt lat="43.64284" lon="6.79016">
        <ele>185</ele>
        <time>2023-04-26T13:40:44.000Z</time>
      </trkpt>
      <trkpt lat="43.64284" lon="6.79015">
        <ele>184.9</ele>
        <time>2023-04-26T13:40:54.000Z</time>
      </trkpt>
      <trkpt lat="43.64284" lon="6.79016">
        <ele>184.9</ele>
        <time>2023-04-26T13:41:04.000Z</time>
      </trkpt>
      <trkpt lat="43.64286" lon="6.79014">
        <ele>186.3</ele>
        <time>2023-04-26T13:41:14.000Z</time>
      </trkpt>
      <trkpt lat="43.64289" lon="6.7901">
        <ele>184.3</ele>
        <time>2023-04-26T13:41:24.000Z</time>
      </trkpt>
      <trkpt lat="43.64287" lon="6.79009">
        <ele>184.2</ele>
        <time>2023-04-26T13:41:34.000Z</time>
      </trkpt>
      <trkpt lat="43.64288" lon="6.7901">
        <ele>184.8</ele>
        <time>2023-04-26T13:41:44.000Z</time>
      </trkpt>
      <trkpt lat="43.64287" lon="6.78999">
        <ele>185.3</ele>
        <time>2023-04-26T13:41:54.000Z</time>
      </trkpt>
      <trkpt lat="43.64286" lon="6.78987">
        <ele>185.1</ele>
        <time>2023-04-26T13:42:04.000Z</time>
      </trkpt>
      <trkpt lat="43.64281" lon="6.78988">
        <ele>184.7</ele>
        <time>2023-04-26T13:42:14.000Z</time>
      </trkpt>
      <trkpt lat="43.64287" lon="6.78999">
        <ele>185.1</ele>
        <time>2023-04-26T13:42:24.000Z</time>
      </trkpt>
      <trkpt lat="43.64287" lon="6.79008">
        <ele>186.1</ele>
        <time>2023-04-26T13:42:34.000Z</time>
      </trkpt>
      <trkpt lat="43.64285" lon="6.79009">
        <ele>185.8</ele>
        <time>2023-04-26T13:42:44.000Z</time>
      </trkpt>
      <trkpt lat="43.64284" lon="6.79007">
        <ele>186.1</ele>
        <time>2023-04-26T13:42:54.000Z</time>
      </trkpt>
      <trkpt lat="43.64284" lon="6.79006">
        <ele>186.1</ele>
        <time>2023-04-26T13:43:04.000Z</time>
      </trkpt>
      <trkpt lat="43.64286" lon="6.79008">
        <ele>185.9</ele>
        <time>2023-04-26T13:43:14.000Z</time>
      </trkpt>
      <trkpt lat="43.64287" lon="6.79007">
        <ele>186.1</ele>
        <time>2023-04-26T13:43:24.000Z</time>
      </trkpt>
      <trkpt lat="43.64288" lon="6.79002">
        <ele>186.1</ele>
        <time>2023-04-26T13:43:34.000Z</time>
      </trkpt>
      <trkpt lat="43.64288" lon="6.79002">
        <ele>186.1</ele>
        <time>2023-04-26T13:43:44.000Z</time>
      </trkpt>
      <trkpt lat="43.64289" lon="6.79002">
        <ele>186.2</ele>
        <time>2023-04-26T13:43:54.000Z</time>
      </trkpt>
      <trkpt lat="43.64286" lon="6.78999">
        <ele>186.1</ele>
        <time>2023-04-26T13:44:04.000Z</time>
      </trkpt>
      <trkpt lat="43.64286" lon="6.79002">
        <ele>185.8</ele>
        <time>2023-04-26T13:44:14.000Z</time>
      </trkpt>
      <trkpt lat="43.64286" lon="6.79001">
        <ele>185.6</ele>
        <time>2023-04-26T13:44:24.000Z</time>
      </trkpt>
      <trkpt lat="43.64286" lon="6.78997">
        <ele>185.8</ele>
        <time>2023-04-26T13:44:34.000Z</time>
      </trkpt>
      <trkpt lat="43.64289" lon="6.78993">
        <ele>184.9</ele>
        <time>2023-04-26T13:44:44.000Z</time>
      </trkpt>
      <trkpt lat="43.64288" lon="6.78989">
        <ele>183</ele>
        <time>2023-04-26T13:44:54.000Z</time>
      </trkpt>
      <trkpt lat="43.64286" lon="6.78991">
        <ele>182.3</ele>
        <time>2023-04-26T13:45:04.000Z</time>
      </trkpt>
      <trkpt lat="43.64288" lon="6.78991">
        <ele>180.8</ele>
        <time>2023-04-26T13:45:14.000Z</time>
      </trkpt>
      <trkpt lat="43.64292" lon="6.78984">
        <ele>178.6</ele>
        <time>2023-04-26T13:45:24.000Z</time>
      </trkpt>
      <trkpt lat="43.643" lon="6.78992">
        <ele>175</ele>
        <time>2023-04-26T13:45:34.000Z</time>
      </trkpt>
      <trkpt lat="43.64322" lon="6.7899">
        <ele>177.2</ele>
        <time>2023-04-26T13:45:44.000Z</time>
      </trkpt>
      <trkpt lat="43.64331" lon="6.79009">
        <ele>175.8</ele>
        <time>2023-04-26T13:45:54.000Z</time>
      </trkpt>
      <trkpt lat="43.64321" lon="6.79011">
        <ele>174.3</ele>
        <time>2023-04-26T13:46:04.000Z</time>
      </trkpt>
      <trkpt lat="43.6432" lon="6.79006">
        <ele>173.2</ele>
        <time>2023-04-26T13:46:14.000Z</time>
      </trkpt>
      <trkpt lat="43.64326" lon="6.7901">
        <ele>172.3</ele>
        <time>2023-04-26T13:46:24.000Z</time>
      </trkpt>
      <trkpt lat="43.64331" lon="6.79018">
        <ele>170.8</ele>
        <time>2023-04-26T13:46:34.000Z</time>
      </trkpt>
      <trkpt lat="43.64333" lon="6.79008">
        <ele>170.6</ele>
        <time>2023-04-26T13:46:44.000Z</time>
      </trkpt>
      <trkpt lat="43.64332" lon="6.79014">
        <ele>170.3</ele>
        <time>2023-04-26T13:46:54.000Z</time>
      </trkpt>
      <trkpt lat="43.64331" lon="6.79021">
        <ele>170.4</ele>
        <time>2023-04-26T13:47:04.000Z</time>
      </trkpt>
      <trkpt lat="43.64334" lon="6.79032">
        <ele>170</ele>
        <time>2023-04-26T13:47:14.000Z</time>
      </trkpt>
      <trkpt lat="43.64339" lon="6.79039">
        <ele>169.8</ele>
        <time>2023-04-26T13:47:24.000Z</time>
      </trkpt>
      <trkpt lat="43.64343" lon="6.79046">
        <ele>169.5</ele>
        <time>2023-04-26T13:47:34.000Z</time>
      </trkpt>
      <trkpt lat="43.64345" lon="6.79055">
        <ele>169.7</ele>
        <time>2023-04-26T13:47:44.000Z</time>
      </trkpt>
      <trkpt lat="43.64346" lon="6.79055">
        <ele>169.8</ele>
        <time>2023-04-26T13:47:54.000Z</time>
      </trkpt>
      <trkpt lat="43.64346" lon="6.79059">
        <ele>169.5</ele>
        <time>2023-04-26T13:48:04.000Z</time>
      </trkpt>
      <trkpt lat="43.64347" lon="6.7906">
        <ele>169.1</ele>
        <time>2023-04-26T13:48:14.000Z</time>
      </trkpt>
      <trkpt lat="43.64348" lon="6.79055">
        <ele>169.3</ele>
        <time>2023-04-26T13:48:24.000Z</time>
      </trkpt>
      <trkpt lat="43.64349" lon="6.79051">
        <ele>169.6</ele>
        <time>2023-04-26T13:48:34.000Z</time>
      </trkpt>
      <trkpt lat="43.64346" lon="6.79052">
        <ele>169.1</ele>
        <time>2023-04-26T13:48:44.000Z</time>
      </trkpt>
      <trkpt lat="43.64343" lon="6.79064">
        <ele>169.9</ele>
        <time>2023-04-26T13:48:54.000Z</time>
      </trkpt>
      <trkpt lat="43.6434" lon="6.79072">
        <ele>169.4</ele>
        <time>2023-04-26T13:49:04.000Z</time>
      </trkpt>
      <trkpt lat="43.64341" lon="6.79073">
        <ele>169.7</ele>
        <time>2023-04-26T13:49:14.000Z</time>
      </trkpt>
      <trkpt lat="43.64341" lon="6.79075">
        <ele>170</ele>
        <time>2023-04-26T13:49:24.000Z</time>
      </trkpt>
      <trkpt lat="43.64344" lon="6.79062">
        <ele>170</ele>
        <time>2023-04-26T13:49:34.000Z</time>
      </trkpt>
      <trkpt lat="43.64343" lon="6.79066">
        <ele>170.8</ele>
        <time>2023-04-26T13:49:44.000Z</time>
      </trkpt>
      <trkpt lat="43.64344" lon="6.79065">
        <ele>171.3</ele>
        <time>2023-04-26T13:49:54.000Z</time>
      </trkpt>
      <trkpt lat="43.64348" lon="6.7906">
        <ele>171.7</ele>
        <time>2023-04-26T13:50:04.000Z</time>
      </trkpt>
      <trkpt lat="43.64345" lon="6.79063">
        <ele>171.3</ele>
        <time>2023-04-26T13:50:14.000Z</time>
      </trkpt>
      <trkpt lat="43.64343" lon="6.79066">
        <ele>171.4</ele>
        <time>2023-04-26T13:50:24.000Z</time>
      </trkpt>
      <trkpt lat="43.64341" lon="6.79067">
        <ele>171.1</ele>
        <time>2023-04-26T13:50:34.000Z</time>
      </trkpt>
      <trkpt lat="43.64341" lon="6.79066">
        <ele>171.2</ele>
        <time>2023-04-26T13:50:44.000Z</time>
      </trkpt>
      <trkpt lat="43.6434" lon="6.79066">
        <ele>171.2</ele>
        <time>2023-04-26T13:50:54.000Z</time>
      </trkpt>
      <trkpt lat="43.6434" lon="6.79066">
        <ele>171.1</ele>
        <time>2023-04-26T13:51:04.000Z</time>
      </trkpt>
      <trkpt lat="43.64341" lon="6.79066">
        <ele>171.1</ele>
        <time>2023-04-26T13:51:14.000Z</time>
      </trkpt>
      <trkpt lat="43.64341" lon="6.79068">
        <ele>171.4</ele>
        <time>2023-04-26T13:51:24.000Z</time>
      </trkpt>
      <trkpt lat="43.6434" lon="6.79071">
        <ele>171.1</ele>
        <time>2023-04-26T13:51:34.000Z</time>
      </trkpt>
      <trkpt lat="43.6434" lon="6.79072">
        <ele>171.3</ele>
        <time>2023-04-26T13:51:44.000Z</time>
      </trkpt>
      <trkpt lat="43.64341" lon="6.79072">
        <ele>171.7</ele>
        <time>2023-04-26T13:51:54.000Z</time>
      </trkpt>
      <trkpt lat="43.64342" lon="6.79072">
        <ele>171.7</ele>
        <time>2023-04-26T13:52:04.000Z</time>
      </trkpt>
      <trkpt lat="43.64342" lon="6.79071">
        <ele>171.4</ele>
        <time>2023-04-26T13:52:14.000Z</time>
      </trkpt>
      <trkpt lat="43.64343" lon="6.7907">
        <ele>171.1</ele>
        <time>2023-04-26T13:52:24.000Z</time>
      </trkpt>
      <trkpt lat="43.64344" lon="6.79075">
        <ele>171.5</ele>
        <time>2023-04-26T13:52:34.000Z</time>
      </trkpt>
      <trkpt lat="43.64351" lon="6.7908">
        <ele>173.3</ele>
        <time>2023-04-26T13:52:44.000Z</time>
      </trkpt>
      <trkpt lat="43.64352" lon="6.79076">
        <ele>171.2</ele>
        <time>2023-04-26T13:52:54.000Z</time>
      </trkpt>
      <trkpt lat="43.64345" lon="6.79075">
        <ele>170.3</ele>
        <time>2023-04-26T13:53:04.000Z</time>
      </trkpt>
      <trkpt lat="43.64338" lon="6.79068">
        <ele>168.9</ele>
        <time>2023-04-26T13:53:14.000Z</time>
      </trkpt>
      <trkpt lat="43.64334" lon="6.79057">
        <ele>168.1</ele>
        <time>2023-04-26T13:53:24.000Z</time>
      </trkpt>
      <trkpt lat="43.64333" lon="6.79059">
        <ele>168.2</ele>
        <time>2023-04-26T13:53:34.000Z</time>
      </trkpt>
      <trkpt lat="43.64336" lon="6.79061">
        <ele>168.2</ele>
        <time>2023-04-26T13:53:44.000Z</time>
      </trkpt>
      <trkpt lat="43.64339" lon="6.79055">
        <ele>168.9</ele>
        <time>2023-04-26T13:53:54.000Z</time>
      </trkpt>
      <trkpt lat="43.64337" lon="6.79046">
        <ele>169.3</ele>
        <time>2023-04-26T13:54:04.000Z</time>
      </trkpt>
      <trkpt lat="43.64343" lon="6.79049">
        <ele>170.1</ele>
        <time>2023-04-26T13:54:14.000Z</time>
      </trkpt>
      <trkpt lat="43.64344" lon="6.79052">
        <ele>172.5</ele>
        <time>2023-04-26T13:54:24.000Z</time>
      </trkpt>
      <trkpt lat="43.64345" lon="6.79053">
        <ele>171.5</ele>
        <time>2023-04-26T13:54:34.000Z</time>
      </trkpt>
      <trkpt lat="43.64344" lon="6.79048">
        <ele>170.7</ele>
        <time>2023-04-26T13:54:44.000Z</time>
      </trkpt>
      <trkpt lat="43.64344" lon="6.79047">
        <ele>170.4</ele>
        <time>2023-04-26T13:54:54.000Z</time>
      </trkpt>
      <trkpt lat="43.64344" lon="6.79046">
        <ele>170.5</ele>
        <time>2023-04-26T13:55:04.000Z</time>
      </trkpt>
      <trkpt lat="43.64342" lon="6.79044">
        <ele>170.4</ele>
        <time>2023-04-26T13:55:14.000Z</time>
      </trkpt>
      <trkpt lat="43.64341" lon="6.79043">
        <ele>170.2</ele>
        <time>2023-04-26T13:55:24.000Z</time>
      </trkpt>
      <trkpt lat="43.6434" lon="6.79038">
        <ele>170.1</ele>
        <time>2023-04-26T13:55:34.000Z</time>
      </trkpt>
      <trkpt lat="43.6434" lon="6.79032">
        <ele>170.4</ele>
        <time>2023-04-26T13:55:44.000Z</time>
      </trkpt>
      <trkpt lat="43.64344" lon="6.79025">
        <ele>170.9</ele>
        <time>2023-04-26T13:55:54.000Z</time>
      </trkpt>
      <trkpt lat="43.64345" lon="6.79015">
        <ele>171.6</ele>
        <time>2023-04-26T13:56:04.000Z</time>
      </trkpt>
      <trkpt lat="43.6434" lon="6.79007">
        <ele>172.5</ele>
        <time>2023-04-26T13:56:14.000Z</time>
      </trkpt>
      <trkpt lat="43.64339" lon="6.79011">
        <ele>172.4</ele>
        <time>2023-04-26T13:56:24.000Z</time>
      </trkpt>
      <trkpt lat="43.6434" lon="6.7901">
        <ele>172.6</ele>
        <time>2023-04-26T13:56:34.000Z</time>
      </trkpt>
      <trkpt lat="43.64338" lon="6.79004">
        <ele>172.8</ele>
        <time>2023-04-26T13:56:44.000Z</time>
      </trkpt>
      <trkpt lat="43.64335" lon="6.78998">
        <ele>172.8</ele>
        <time>2023-04-26T13:56:54.000Z</time>
      </trkpt>
      <trkpt lat="43.64333" lon="6.78994">
        <ele>172.7</ele>
        <time>2023-04-26T13:57:04.000Z</time>
      </trkpt>
      <trkpt lat="43.6433" lon="6.78984">
        <ele>171.9</ele>
        <time>2023-04-26T13:57:14.000Z</time>
      </trkpt>
      <trkpt lat="43.6433" lon="6.78977">
        <ele>171.7</ele>
        <time>2023-04-26T13:57:24.000Z</time>
      </trkpt>
      <trkpt lat="43.64333" lon="6.78969">
        <ele>171.4</ele>
        <time>2023-04-26T13:57:34.000Z</time>
      </trkpt>
      <trkpt lat="43.64338" lon="6.78963">
        <ele>171.2</ele>
        <time>2023-04-26T13:57:44.000Z</time>
      </trkpt>
      <trkpt lat="43.64339" lon="6.78951">
        <ele>171.4</ele>
        <time>2023-04-26T13:57:54.000Z</time>
      </trkpt>
      <trkpt lat="43.64342" lon="6.7894">
        <ele>171.7</ele>
        <time>2023-04-26T13:58:04.000Z</time>
      </trkpt>
      <trkpt lat="43.6435" lon="6.78941">
        <ele>171.9</ele>
        <time>2023-04-26T13:58:14.000Z</time>
      </trkpt>
      <trkpt lat="43.64353" lon="6.7895">
        <ele>171.6</ele>
        <time>2023-04-26T13:58:24.000Z</time>
      </trkpt>
      <trkpt lat="43.64356" lon="6.78952">
        <ele>171.4</ele>
        <time>2023-04-26T13:58:34.000Z</time>
      </trkpt>
      <trkpt lat="43.64357" lon="6.78952">
        <ele>171.4</ele>
        <time>2023-04-26T13:58:44.000Z</time>
      </trkpt>
      <trkpt lat="43.64364" lon="6.78953">
        <ele>171.1</ele>
        <time>2023-04-26T13:58:54.000Z</time>
      </trkpt>
      <trkpt lat="43.64371" lon="6.7895">
        <ele>171.2</ele>
        <time>2023-04-26T13:59:04.000Z</time>
      </trkpt>
      <trkpt lat="43.64374" lon="6.78948">
        <ele>170.7</ele>
        <time>2023-04-26T13:59:14.000Z</time>
      </trkpt>
      <trkpt lat="43.64376" lon="6.78951">
        <ele>169</ele>
        <time>2023-04-26T13:59:24.000Z</time>
      </trkpt>
      <trkpt lat="43.64378" lon="6.78949">
        <ele>168</ele>
        <time>2023-04-26T13:59:34.000Z</time>
      </trkpt>
      <trkpt lat="43.64378" lon="6.78951">
        <ele>168.1</ele>
        <time>2023-04-26T13:59:44.000Z</time>
      </trkpt>
      <trkpt lat="43.6438" lon="6.78947">
        <ele>170.4</ele>
        <time>2023-04-26T13:59:54.000Z</time>
      </trkpt>
      <trkpt lat="43.6439" lon="6.78949">
        <ele>172.2</ele>
        <time>2023-04-26T14:00:04.000Z</time>
      </trkpt>
      <trkpt lat="43.64395" lon="6.78945">
        <ele>171.3</ele>
        <time>2023-04-26T14:00:14.000Z</time>
      </trkpt>
      <trkpt lat="43.64404" lon="6.78936">
        <ele>170.2</ele>
        <time>2023-04-26T14:00:24.000Z</time>
      </trkpt>
      <trkpt lat="43.6441" lon="6.78932">
        <ele>170.4</ele>
        <time>2023-04-26T14:00:34.000Z</time>
      </trkpt>
      <trkpt lat="43.64416" lon="6.78924">
        <ele>170.3</ele>
        <time>2023-04-26T14:00:44.000Z</time>
      </trkpt>
      <trkpt lat="43.64423" lon="6.78917">
        <ele>170.7</ele>
        <time>2023-04-26T14:00:54.000Z</time>
      </trkpt>
      <trkpt lat="43.64435" lon="6.78914">
        <ele>171.2</ele>
        <time>2023-04-26T14:01:04.000Z</time>
      </trkpt>
      <trkpt lat="43.64445" lon="6.78906">
        <ele>171.7</ele>
        <time>2023-04-26T14:01:14.000Z</time>
      </trkpt>
      <trkpt lat="43.64456" lon="6.78898">
        <ele>172.9</ele>
        <time>2023-04-26T14:01:24.000Z</time>
      </trkpt>
      <trkpt lat="43.64463" lon="6.78886">
        <ele>172.7</ele>
        <time>2023-04-26T14:01:34.000Z</time>
      </trkpt>
      <trkpt lat="43.64468" lon="6.78876">
        <ele>172</ele>
        <time>2023-04-26T14:01:44.000Z</time>
      </trkpt>
      <trkpt lat="43.6447" lon="6.78867">
        <ele>172.3</ele>
        <time>2023-04-26T14:01:54.000Z</time>
      </trkpt>
      <trkpt lat="43.64479" lon="6.78856">
        <ele>173.9</ele>
        <time>2023-04-26T14:02:04.000Z</time>
      </trkpt>
      <trkpt lat="43.64487" lon="6.78845">
        <ele>174.4</ele>
        <time>2023-04-26T14:02:14.000Z</time>
      </trkpt>
      <trkpt lat="43.64501" lon="6.78836">
        <ele>173.7</ele>
        <time>2023-04-26T14:02:24.000Z</time>
      </trkpt>
      <trkpt lat="43.64509" lon="6.78827">
        <ele>173.6</ele>
        <time>2023-04-26T14:02:34.000Z</time>
      </trkpt>
      <trkpt lat="43.64515" lon="6.78817">
        <ele>173.3</ele>
        <time>2023-04-26T14:02:44.000Z</time>
      </trkpt>
      <trkpt lat="43.64521" lon="6.78812">
        <ele>173.2</ele>
        <time>2023-04-26T14:02:54.000Z</time>
      </trkpt>
      <trkpt lat="43.64528" lon="6.78804">
        <ele>173.5</ele>
        <time>2023-04-26T14:03:04.000Z</time>
      </trkpt>
      <trkpt lat="43.64535" lon="6.78802">
        <ele>173.1</ele>
        <time>2023-04-26T14:03:14.000Z</time>
      </trkpt>
      <trkpt lat="43.6454" lon="6.78798">
        <ele>172.4</ele>
        <time>2023-04-26T14:03:24.000Z</time>
      </trkpt>
      <trkpt lat="43.64548" lon="6.78791">
        <ele>172</ele>
        <time>2023-04-26T14:03:34.000Z</time>
      </trkpt>
      <trkpt lat="43.64555" lon="6.78785">
        <ele>172.1</ele>
        <time>2023-04-26T14:03:46.000Z</time>
      </trkpt>
      <trkpt lat="43.64563" lon="6.78774">
        <ele>172.5</ele>
        <time>2023-04-26T14:03:56.000Z</time>
      </trkpt>
      <trkpt lat="43.64567" lon="6.7877">
        <ele>172.9</ele>
        <time>2023-04-26T14:04:06.000Z</time>
      </trkpt>
      <trkpt lat="43.6457" lon="6.78765">
        <ele>172.9</ele>
        <time>2023-04-26T14:04:16.000Z</time>
      </trkpt>
      <trkpt lat="43.64574" lon="6.78765">
        <ele>173.3</ele>
        <time>2023-04-26T14:04:26.000Z</time>
      </trkpt>
      <trkpt lat="43.64574" lon="6.78766">
        <ele>173.1</ele>
        <time>2023-04-26T14:04:36.000Z</time>
      </trkpt>
      <trkpt lat="43.64572" lon="6.78766">
        <ele>172.6</ele>
        <time>2023-04-26T14:04:46.000Z</time>
      </trkpt>
      <trkpt lat="43.64575" lon="6.78762">
        <ele>172.7</ele>
        <time>2023-04-26T14:04:56.000Z</time>
      </trkpt>
      <trkpt lat="43.64575" lon="6.78759">
        <ele>172.1</ele>
        <time>2023-04-26T14:05:06.000Z</time>
      </trkpt>
      <trkpt lat="43.64575" lon="6.78756">
        <ele>172.5</ele>
        <time>2023-04-26T14:05:16.000Z</time>
      </trkpt>
      <trkpt lat="43.6458" lon="6.78752">
        <ele>172.8</ele>
        <time>2023-04-26T14:05:26.000Z</time>
      </trkpt>
      <trkpt lat="43.64588" lon="6.78744">
        <ele>173.6</ele>
        <time>2023-04-26T14:05:36.000Z</time>
      </trkpt>
      <trkpt lat="43.64594" lon="6.78737">
        <ele>174.2</ele>
        <time>2023-04-26T14:05:46.000Z</time>
      </trkpt>
      <trkpt lat="43.64604" lon="6.7873">
        <ele>174.1</ele>
        <time>2023-04-26T14:05:56.000Z</time>
      </trkpt>
      <trkpt lat="43.64612" lon="6.78727">
        <ele>174.2</ele>
        <time>2023-04-26T14:06:06.000Z</time>
      </trkpt>
      <trkpt lat="43.64621" lon="6.78725">
        <ele>174.3</ele>
        <time>2023-04-26T14:06:16.000Z</time>
      </trkpt>
      <trkpt lat="43.6463" lon="6.78718">
        <ele>174.4</ele>
        <time>2023-04-26T14:06:26.000Z</time>
      </trkpt>
      <trkpt lat="43.64639" lon="6.78713">
        <ele>174.5</ele>
        <time>2023-04-26T14:06:36.000Z</time>
      </trkpt>
      <trkpt lat="43.64647" lon="6.7871">
        <ele>174.4</ele>
        <time>2023-04-26T14:06:46.000Z</time>
      </trkpt>
      <trkpt lat="43.64655" lon="6.78704">
        <ele>174.5</ele>
        <time>2023-04-26T14:06:56.000Z</time>
      </trkpt>
      <trkpt lat="43.64669" lon="6.78701">
        <ele>174.5</ele>
        <time>2023-04-26T14:07:06.000Z</time>
      </trkpt>
      <trkpt lat="43.64677" lon="6.78692">
        <ele>174.4</ele>
        <time>2023-04-26T14:07:16.000Z</time>
      </trkpt>
      <trkpt lat="43.64686" lon="6.78685">
        <ele>174</ele>
        <time>2023-04-26T14:07:26.000Z</time>
      </trkpt>
      <trkpt lat="43.64693" lon="6.78674">
        <ele>174</ele>
        <time>2023-04-26T14:07:36.000Z</time>
      </trkpt>
      <trkpt lat="43.64704" lon="6.78666">
        <ele>174.3</ele>
        <time>2023-04-26T14:07:46.000Z</time>
      </trkpt>
      <trkpt lat="43.64709" lon="6.78659">
        <ele>174.4</ele>
        <time>2023-04-26T14:07:56.000Z</time>
      </trkpt>
      <trkpt lat="43.64712" lon="6.78651">
        <ele>175.5</ele>
        <time>2023-04-26T14:08:06.000Z</time>
      </trkpt>
      <trkpt lat="43.64717" lon="6.78641">
        <ele>176.4</ele>
        <time>2023-04-26T14:08:16.000Z</time>
      </trkpt>
      <trkpt lat="43.6472" lon="6.78635">
        <ele>176.6</ele>
        <time>2023-04-26T14:08:26.000Z</time>
      </trkpt>
      <trkpt lat="43.64727" lon="6.78627">
        <ele>177</ele>
        <time>2023-04-26T14:08:36.000Z</time>
      </trkpt>
      <trkpt lat="43.64732" lon="6.78618">
        <ele>177.4</ele>
        <time>2023-04-26T14:08:46.000Z</time>
      </trkpt>
      <trkpt lat="43.64738" lon="6.78608">
        <ele>177.7</ele>
        <time>2023-04-26T14:08:56.000Z</time>
      </trkpt>
      <trkpt lat="43.64745" lon="6.78596">
        <ele>177.7</ele>
        <time>2023-04-26T14:09:06.000Z</time>
      </trkpt>
      <trkpt lat="43.64749" lon="6.7858">
        <ele>177.7</ele>
        <time>2023-04-26T14:09:16.000Z</time>
      </trkpt>
      <trkpt lat="43.64754" lon="6.78577">
        <ele>178</ele>
        <time>2023-04-26T14:09:26.000Z</time>
      </trkpt>
      <trkpt lat="43.64757" lon="6.78567">
        <ele>178.7</ele>
        <time>2023-04-26T14:09:36.000Z</time>
      </trkpt>
      <trkpt lat="43.64765" lon="6.78559">
        <ele>178.4</ele>
        <time>2023-04-26T14:09:46.000Z</time>
      </trkpt>
      <trkpt lat="43.64767" lon="6.78546">
        <ele>178.6</ele>
        <time>2023-04-26T14:09:56.000Z</time>
      </trkpt>
      <trkpt lat="43.64764" lon="6.78526">
        <ele>178.6</ele>
        <time>2023-04-26T14:10:06.000Z</time>
      </trkpt>
      <trkpt lat="43.64757" lon="6.78501">
        <ele>178.6</ele>
        <time>2023-04-26T14:10:16.000Z</time>
      </trkpt>
      <trkpt lat="43.64771" lon="6.78495">
        <ele>178.5</ele>
        <time>2023-04-26T14:10:26.000Z</time>
      </trkpt>
      <trkpt lat="43.6479" lon="6.7849">
        <ele>178.8</ele>
        <time>2023-04-26T14:10:36.000Z</time>
      </trkpt>
      <trkpt lat="43.64795" lon="6.78484">
        <ele>178.6</ele>
        <time>2023-04-26T14:10:46.000Z</time>
      </trkpt>
      <trkpt lat="43.64801" lon="6.7848">
        <ele>177.9</ele>
        <time>2023-04-26T14:10:56.000Z</time>
      </trkpt>
      <trkpt lat="43.64802" lon="6.78477">
        <ele>178</ele>
        <time>2023-04-26T14:11:06.000Z</time>
      </trkpt>
      <trkpt lat="43.64805" lon="6.7848">
        <ele>178</ele>
        <time>2023-04-26T14:11:16.000Z</time>
      </trkpt>
      <trkpt lat="43.64809" lon="6.78481">
        <ele>177.9</ele>
        <time>2023-04-26T14:11:26.000Z</time>
      </trkpt>
      <trkpt lat="43.64814" lon="6.78477">
        <ele>177.1</ele>
        <time>2023-04-26T14:11:36.000Z</time>
      </trkpt>
      <trkpt lat="43.64821" lon="6.78476">
        <ele>176.5</ele>
        <time>2023-04-26T14:11:46.000Z</time>
      </trkpt>
      <trkpt lat="43.64831" lon="6.78467">
        <ele>176.7</ele>
        <time>2023-04-26T14:11:56.000Z</time>
      </trkpt>
      <trkpt lat="43.64836" lon="6.78465">
        <ele>176.9</ele>
        <time>2023-04-26T14:12:06.000Z</time>
      </trkpt>
      <trkpt lat="43.64847" lon="6.78459">
        <ele>176</ele>
        <time>2023-04-26T14:12:16.000Z</time>
      </trkpt>
      <trkpt lat="43.64845" lon="6.78464">
        <ele>177.6</ele>
        <time>2023-04-26T14:12:26.000Z</time>
      </trkpt>
      <trkpt lat="43.64846" lon="6.7846">
        <ele>177.7</ele>
        <time>2023-04-26T14:12:36.000Z</time>
      </trkpt>
      <trkpt lat="43.64848" lon="6.78462">
        <ele>177.6</ele>
        <time>2023-04-26T14:12:46.000Z</time>
      </trkpt>
      <trkpt lat="43.64852" lon="6.78469">
        <ele>177.1</ele>
        <time>2023-04-26T14:12:56.000Z</time>
      </trkpt>
      <trkpt lat="43.64862" lon="6.78463">
        <ele>176.7</ele>
        <time>2023-04-26T14:13:06.000Z</time>
      </trkpt>
      <trkpt lat="43.64868" lon="6.78464">
        <ele>176.3</ele>
        <time>2023-04-26T14:13:16.000Z</time>
      </trkpt>
      <trkpt lat="43.64868" lon="6.78465">
        <ele>176.8</ele>
        <time>2023-04-26T14:13:26.000Z</time>
      </trkpt>
      <trkpt lat="43.6487" lon="6.78461">
        <ele>176.5</ele>
        <time>2023-04-26T14:13:36.000Z</time>
      </trkpt>
      <trkpt lat="43.64873" lon="6.7846">
        <ele>176.7</ele>
        <time>2023-04-26T14:13:46.000Z</time>
      </trkpt>
      <trkpt lat="43.64877" lon="6.78462">
        <ele>176.8</ele>
        <time>2023-04-26T14:13:56.000Z</time>
      </trkpt>
      <trkpt lat="43.64881" lon="6.7846">
        <ele>175.2</ele>
        <time>2023-04-26T14:14:06.000Z</time>
      </trkpt>
      <trkpt lat="43.64877" lon="6.78469">
        <ele>176</ele>
        <time>2023-04-26T14:14:16.000Z</time>
      </trkpt>
      <trkpt lat="43.64882" lon="6.78466">
        <ele>175.8</ele>
        <time>2023-04-26T14:14:26.000Z</time>
      </trkpt>
      <trkpt lat="43.64896" lon="6.78466">
        <ele>176.1</ele>
        <time>2023-04-26T14:14:36.000Z</time>
      </trkpt>
      <trkpt lat="43.64907" lon="6.78467">
        <ele>175.9</ele>
        <time>2023-04-26T14:14:46.000Z</time>
      </trkpt>
      <trkpt lat="43.64922" lon="6.78482">
        <ele>176.2</ele>
        <time>2023-04-26T14:14:56.000Z</time>
      </trkpt>
      <trkpt lat="43.64934" lon="6.78487">
        <ele>175.9</ele>
        <time>2023-04-26T14:15:06.000Z</time>
      </trkpt>
      <trkpt lat="43.64944" lon="6.78481">
        <ele>176.1</ele>
        <time>2023-04-26T14:15:16.000Z</time>
      </trkpt>
      <trkpt lat="43.64954" lon="6.78477">
        <ele>176.5</ele>
        <time>2023-04-26T14:15:26.000Z</time>
      </trkpt>
      <trkpt lat="43.64963" lon="6.78495">
        <ele>176.4</ele>
        <time>2023-04-26T14:15:36.000Z</time>
      </trkpt>
      <trkpt lat="43.64966" lon="6.78513">
        <ele>176.9</ele>
        <time>2023-04-26T14:15:46.000Z</time>
      </trkpt>
      <trkpt lat="43.64974" lon="6.78518">
        <ele>176.6</ele>
        <time>2023-04-26T14:15:56.000Z</time>
      </trkpt>
      <trkpt lat="43.64983" lon="6.78522">
        <ele>177</ele>
        <time>2023-04-26T14:16:06.000Z</time>
      </trkpt>
      <trkpt lat="43.64989" lon="6.78526">
        <ele>177</ele>
        <time>2023-04-26T14:16:16.000Z</time>
      </trkpt>
      <trkpt lat="43.65" lon="6.7853">
        <ele>176.8</ele>
        <time>2023-04-26T14:16:26.000Z</time>
      </trkpt>
      <trkpt lat="43.65003" lon="6.78539">
        <ele>177.1</ele>
        <time>2023-04-26T14:16:36.000Z</time>
      </trkpt>
      <trkpt lat="43.65005" lon="6.78543">
        <ele>177.1</ele>
        <time>2023-04-26T14:16:46.000Z</time>
      </trkpt>
      <trkpt lat="43.65009" lon="6.78548">
        <ele>177.2</ele>
        <time>2023-04-26T14:16:56.000Z</time>
      </trkpt>
      <trkpt lat="43.65008" lon="6.7856">
        <ele>176</ele>
        <time>2023-04-26T14:17:06.000Z</time>
      </trkpt>
      <trkpt lat="43.65007" lon="6.78569">
        <ele>176.7</ele>
        <time>2023-04-26T14:17:16.000Z</time>
      </trkpt>
      <trkpt lat="43.65006" lon="6.7857">
        <ele>175.9</ele>
        <time>2023-04-26T14:17:26.000Z</time>
      </trkpt>
      <trkpt lat="43.65006" lon="6.78572">
        <ele>175.9</ele>
        <time>2023-04-26T14:17:36.000Z</time>
      </trkpt>
      <trkpt lat="43.65007" lon="6.7857">
        <ele>176</ele>
        <time>2023-04-26T14:17:46.000Z</time>
      </trkpt>
      <trkpt lat="43.6501" lon="6.78566">
        <ele>175.1</ele>
        <time>2023-04-26T14:17:56.000Z</time>
      </trkpt>
      <trkpt lat="43.65012" lon="6.78557">
        <ele>176</ele>
        <time>2023-04-26T14:18:06.000Z</time>
      </trkpt>
      <trkpt lat="43.65009" lon="6.78552">
        <ele>175.8</ele>
        <time>2023-04-26T14:18:16.000Z</time>
      </trkpt>
      <trkpt lat="43.65006" lon="6.78552">
        <ele>174.8</ele>
        <time>2023-04-26T14:18:26.000Z</time>
      </trkpt>
      <trkpt lat="43.65003" lon="6.78553">
        <ele>175.1</ele>
        <time>2023-04-26T14:18:36.000Z</time>
      </trkpt>
      <trkpt lat="43.64996" lon="6.78564">
        <ele>174.9</ele>
        <time>2023-04-26T14:18:46.000Z</time>
      </trkpt>
      <trkpt lat="43.6499" lon="6.78576">
        <ele>175.4</ele>
        <time>2023-04-26T14:18:56.000Z</time>
      </trkpt>
      <trkpt lat="43.64992" lon="6.78571">
        <ele>174.6</ele>
        <time>2023-04-26T14:19:06.000Z</time>
      </trkpt>
      <trkpt lat="43.64996" lon="6.78557">
        <ele>175</ele>
        <time>2023-04-26T14:19:16.000Z</time>
      </trkpt>
      <trkpt lat="43.64997" lon="6.78554">
        <ele>175.2</ele>
        <time>2023-04-26T14:19:26.000Z</time>
      </trkpt>
      <trkpt lat="43.64999" lon="6.78558">
        <ele>175.4</ele>
        <time>2023-04-26T14:19:36.000Z</time>
      </trkpt>
      <trkpt lat="43.64999" lon="6.78563">
        <ele>176.5</ele>
        <time>2023-04-26T14:19:46.000Z</time>
      </trkpt>
      <trkpt lat="43.65" lon="6.78573">
        <ele>177.1</ele>
        <time>2023-04-26T14:19:56.000Z</time>
      </trkpt>
      <trkpt lat="43.65002" lon="6.78572">
        <ele>176.9</ele>
        <time>2023-04-26T14:20:06.000Z</time>
      </trkpt>
      <trkpt lat="43.65004" lon="6.78572">
        <ele>177.2</ele>
        <time>2023-04-26T14:20:16.000Z</time>
      </trkpt>
      <trkpt lat="43.65004" lon="6.78567">
        <ele>176.8</ele>
        <time>2023-04-26T14:20:26.000Z</time>
      </trkpt>
      <trkpt lat="43.65006" lon="6.78565">
        <ele>176.5</ele>
        <time>2023-04-26T14:20:36.000Z</time>
      </trkpt>
      <trkpt lat="43.65007" lon="6.78563">
        <ele>176.8</ele>
        <time>2023-04-26T14:20:46.000Z</time>
      </trkpt>
      <trkpt lat="43.6501" lon="6.78562">
        <ele>176.9</ele>
        <time>2023-04-26T14:20:56.000Z</time>
      </trkpt>
      <trkpt lat="43.65014" lon="6.78555">
        <ele>176.6</ele>
        <time>2023-04-26T14:21:06.000Z</time>
      </trkpt>
      <trkpt lat="43.65013" lon="6.78545">
        <ele>176.4</ele>
        <time>2023-04-26T14:21:16.000Z</time>
      </trkpt>
      <trkpt lat="43.65018" lon="6.7854">
        <ele>177.3</ele>
        <time>2023-04-26T14:21:26.000Z</time>
      </trkpt>
      <trkpt lat="43.65026" lon="6.78539">
        <ele>178</ele>
        <time>2023-04-26T14:21:36.000Z</time>
      </trkpt>
      <trkpt lat="43.65034" lon="6.78542">
        <ele>177.9</ele>
        <time>2023-04-26T14:21:46.000Z</time>
      </trkpt>
      <trkpt lat="43.65043" lon="6.78543">
        <ele>177.4</ele>
        <time>2023-04-26T14:21:56.000Z</time>
      </trkpt>
      <trkpt lat="43.65051" lon="6.78538">
        <ele>177.5</ele>
        <time>2023-04-26T14:22:06.000Z</time>
      </trkpt>
      <trkpt lat="43.65061" lon="6.78542">
        <ele>177.4</ele>
        <time>2023-04-26T14:22:16.000Z</time>
      </trkpt>
      <trkpt lat="43.65072" lon="6.78543">
        <ele>177.7</ele>
        <time>2023-04-26T14:22:26.000Z</time>
      </trkpt>
      <trkpt lat="43.65081" lon="6.78542">
        <ele>178</ele>
        <time>2023-04-26T14:22:36.000Z</time>
      </trkpt>
      <trkpt lat="43.65087" lon="6.78548">
        <ele>177.7</ele>
        <time>2023-04-26T14:22:46.000Z</time>
      </trkpt>
      <trkpt lat="43.65097" lon="6.78547">
        <ele>177.6</ele>
        <time>2023-04-26T14:22:56.000Z</time>
      </trkpt>
      <trkpt lat="43.65117" lon="6.78534">
        <ele>179.1</ele>
        <time>2023-04-26T14:23:06.000Z</time>
      </trkpt>
      <trkpt lat="43.65127" lon="6.78527">
        <ele>179</ele>
        <time>2023-04-26T14:23:16.000Z</time>
      </trkpt>
      <trkpt lat="43.65135" lon="6.78519">
        <ele>179.7</ele>
        <time>2023-04-26T14:23:26.000Z</time>
      </trkpt>
      <trkpt lat="43.65143" lon="6.7851">
        <ele>180.6</ele>
        <time>2023-04-26T14:23:36.000Z</time>
      </trkpt>
      <trkpt lat="43.65151" lon="6.78501">
        <ele>180.5</ele>
        <time>2023-04-26T14:23:46.000Z</time>
      </trkpt>
      <trkpt lat="43.65158" lon="6.78491">
        <ele>179.6</ele>
        <time>2023-04-26T14:23:56.000Z</time>
      </trkpt>
      <trkpt lat="43.65165" lon="6.78485">
        <ele>179.1</ele>
        <time>2023-04-26T14:24:06.000Z</time>
      </trkpt>
      <trkpt lat="43.65167" lon="6.78484">
        <ele>176.8</ele>
        <time>2023-04-26T14:24:16.000Z</time>
      </trkpt>
      <trkpt lat="43.65174" lon="6.78475">
        <ele>181.1</ele>
        <time>2023-04-26T14:24:26.000Z</time>
      </trkpt>
      <trkpt lat="43.65187" lon="6.7847">
        <ele>180.4</ele>
        <time>2023-04-26T14:24:36.000Z</time>
      </trkpt>
      <trkpt lat="43.65197" lon="6.78459">
        <ele>179.9</ele>
        <time>2023-04-26T14:24:46.000Z</time>
      </trkpt>
      <trkpt lat="43.65205" lon="6.78455">
        <ele>180.2</ele>
        <time>2023-04-26T14:24:56.000Z</time>
      </trkpt>
      <trkpt lat="43.65214" lon="6.78453">
        <ele>182.1</ele>
        <time>2023-04-26T14:25:06.000Z</time>
      </trkpt>
      <trkpt lat="43.65223" lon="6.78443">
        <ele>183.1</ele>
        <time>2023-04-26T14:25:16.000Z</time>
      </trkpt>
      <trkpt lat="43.65238" lon="6.78434">
        <ele>184.2</ele>
        <time>2023-04-26T14:25:26.000Z</time>
      </trkpt>
      <trkpt lat="43.65246" lon="6.78427">
        <ele>183.8</ele>
        <time>2023-04-26T14:25:36.000Z</time>
      </trkpt>
      <trkpt lat="43.65251" lon="6.78421">
        <ele>184.5</ele>
        <time>2023-04-26T14:25:46.000Z</time>
      </trkpt>
      <trkpt lat="43.65258" lon="6.7841">
        <ele>184.5</ele>
        <time>2023-04-26T14:25:56.000Z</time>
      </trkpt>
      <trkpt lat="43.6526" lon="6.78408">
        <ele>184.7</ele>
        <time>2023-04-26T14:26:06.000Z</time>
      </trkpt>
      <trkpt lat="43.65261" lon="6.78407">
        <ele>184.3</ele>
        <time>2023-04-26T14:26:16.000Z</time>
      </trkpt>
      <trkpt lat="43.65259" lon="6.78411">
        <ele>185.5</ele>
        <time>2023-04-26T14:26:26.000Z</time>
      </trkpt>
      <trkpt lat="43.65259" lon="6.78411">
        <ele>184.3</ele>
        <time>2023-04-26T14:26:36.000Z</time>
      </trkpt>
      <trkpt lat="43.6526" lon="6.78407">
        <ele>183.9</ele>
        <time>2023-04-26T14:26:46.000Z</time>
      </trkpt>
      <trkpt lat="43.65265" lon="6.78406">
        <ele>184.3</ele>
        <time>2023-04-26T14:26:56.000Z</time>
      </trkpt>
      <trkpt lat="43.65272" lon="6.78397">
        <ele>185.3</ele>
        <time>2023-04-26T14:27:06.000Z</time>
      </trkpt>
      <trkpt lat="43.65275" lon="6.78388">
        <ele>185.7</ele>
        <time>2023-04-26T14:27:16.000Z</time>
      </trkpt>
      <trkpt lat="43.6528" lon="6.7838">
        <ele>187.2</ele>
        <time>2023-04-26T14:27:26.000Z</time>
      </trkpt>
      <trkpt lat="43.65285" lon="6.78363">
        <ele>187.9</ele>
        <time>2023-04-26T14:27:36.000Z</time>
      </trkpt>
      <trkpt lat="43.65295" lon="6.78348">
        <ele>188.1</ele>
        <time>2023-04-26T14:27:46.000Z</time>
      </trkpt>
      <trkpt lat="43.65299" lon="6.7834">
        <ele>188.7</ele>
        <time>2023-04-26T14:27:56.000Z</time>
      </trkpt>
      <trkpt lat="43.65309" lon="6.78327">
        <ele>190</ele>
        <time>2023-04-26T14:28:06.000Z</time>
      </trkpt>
      <trkpt lat="43.65315" lon="6.78315">
        <ele>190</ele>
        <time>2023-04-26T14:28:16.000Z</time>
      </trkpt>
      <trkpt lat="43.65318" lon="6.78301">
        <ele>190.7</ele>
        <time>2023-04-26T14:28:26.000Z</time>
      </trkpt>
      <trkpt lat="43.65321" lon="6.78285">
        <ele>190.5</ele>
        <time>2023-04-26T14:28:36.000Z</time>
      </trkpt>
      <trkpt lat="43.65329" lon="6.7828">
        <ele>191.1</ele>
        <time>2023-04-26T14:28:46.000Z</time>
      </trkpt>
      <trkpt lat="43.65338" lon="6.78274">
        <ele>191.8</ele>
        <time>2023-04-26T14:28:56.000Z</time>
      </trkpt>
      <trkpt lat="43.65343" lon="6.78269">
        <ele>192.9</ele>
        <time>2023-04-26T14:29:06.000Z</time>
      </trkpt>
      <trkpt lat="43.65346" lon="6.78265">
        <ele>194</ele>
        <time>2023-04-26T14:29:16.000Z</time>
      </trkpt>
      <trkpt lat="43.65355" lon="6.78256">
        <ele>194.3</ele>
        <time>2023-04-26T14:29:26.000Z</time>
      </trkpt>
      <trkpt lat="43.65367" lon="6.78242">
        <ele>194.3</ele>
        <time>2023-04-26T14:29:36.000Z</time>
      </trkpt>
      <trkpt lat="43.65374" lon="6.78237">
        <ele>194.6</ele>
        <time>2023-04-26T14:29:46.000Z</time>
      </trkpt>
      <trkpt lat="43.65379" lon="6.78236">
        <ele>194.6</ele>
        <time>2023-04-26T14:29:56.000Z</time>
      </trkpt>
      <trkpt lat="43.6538" lon="6.78237">
        <ele>195.2</ele>
        <time>2023-04-26T14:30:06.000Z</time>
      </trkpt>
      <trkpt lat="43.65383" lon="6.78231">
        <ele>195.3</ele>
        <time>2023-04-26T14:30:16.000Z</time>
      </trkpt>
      <trkpt lat="43.65383" lon="6.78227">
        <ele>194.8</ele>
        <time>2023-04-26T14:30:26.000Z</time>
      </trkpt>
      <trkpt lat="43.65384" lon="6.78226">
        <ele>194.3</ele>
        <time>2023-04-26T14:30:36.000Z</time>
      </trkpt>
      <trkpt lat="43.65385" lon="6.78226">
        <ele>193.7</ele>
        <time>2023-04-26T14:30:46.000Z</time>
      </trkpt>
      <trkpt lat="43.65387" lon="6.78222">
        <ele>194</ele>
        <time>2023-04-26T14:30:56.000Z</time>
      </trkpt>
      <trkpt lat="43.65389" lon="6.78222">
        <ele>193.9</ele>
        <time>2023-04-26T14:31:06.000Z</time>
      </trkpt>
      <trkpt lat="43.65388" lon="6.78224">
        <ele>194</ele>
        <time>2023-04-26T14:31:16.000Z</time>
      </trkpt>
      <trkpt lat="43.65388" lon="6.78222">
        <ele>193.7</ele>
        <time>2023-04-26T14:31:26.000Z</time>
      </trkpt>
      <trkpt lat="43.65389" lon="6.78222">
        <ele>194.2</ele>
        <time>2023-04-26T14:31:36.000Z</time>
      </trkpt>
      <trkpt lat="43.65389" lon="6.78219">
        <ele>193.4</ele>
        <time>2023-04-26T14:31:46.000Z</time>
      </trkpt>
      <trkpt lat="43.65388" lon="6.78215">
        <ele>193.3</ele>
        <time>2023-04-26T14:31:56.000Z</time>
      </trkpt>
      <trkpt lat="43.65393" lon="6.78209">
        <ele>193.9</ele>
        <time>2023-04-26T14:32:06.000Z</time>
      </trkpt>
      <trkpt lat="43.65396" lon="6.78198">
        <ele>194.7</ele>
        <time>2023-04-26T14:32:16.000Z</time>
      </trkpt>
      <trkpt lat="43.65401" lon="6.78191">
        <ele>195.2</ele>
        <time>2023-04-26T14:32:26.000Z</time>
      </trkpt>
      <trkpt lat="43.65404" lon="6.78184">
        <ele>195.5</ele>
        <time>2023-04-26T14:32:36.000Z</time>
      </trkpt>
      <trkpt lat="43.65411" lon="6.78174">
        <ele>195.3</ele>
        <time>2023-04-26T14:32:46.000Z</time>
      </trkpt>
      <trkpt lat="43.65418" lon="6.78164">
        <ele>195.2</ele>
        <time>2023-04-26T14:32:56.000Z</time>
      </trkpt>
      <trkpt lat="43.65421" lon="6.78151">
        <ele>192.6</ele>
        <time>2023-04-26T14:33:06.000Z</time>
      </trkpt>
      <trkpt lat="43.6543" lon="6.78141">
        <ele>194</ele>
        <time>2023-04-26T14:33:17.000Z</time>
      </trkpt>
      <trkpt lat="43.65444" lon="6.78132">
        <ele>193.8</ele>
        <time>2023-04-26T14:33:27.000Z</time>
      </trkpt>
      <trkpt lat="43.65447" lon="6.78128">
        <ele>195</ele>
        <time>2023-04-26T14:33:39.000Z</time>
      </trkpt>
      <trkpt lat="43.65448" lon="6.78119">
        <ele>195.8</ele>
        <time>2023-04-26T14:33:49.000Z</time>
      </trkpt>
      <trkpt lat="43.65454" lon="6.78103">
        <ele>196</ele>
        <time>2023-04-26T14:33:59.000Z</time>
      </trkpt>
      <trkpt lat="43.65464" lon="6.78092">
        <ele>195</ele>
        <time>2023-04-26T14:34:09.000Z</time>
      </trkpt>
      <trkpt lat="43.65467" lon="6.78088">
        <ele>193</ele>
        <time>2023-04-26T14:34:19.000Z</time>
      </trkpt>
      <trkpt lat="43.65465" lon="6.78087">
        <ele>191.6</ele>
        <time>2023-04-26T14:34:30.000Z</time>
      </trkpt>
      <trkpt lat="43.65469" lon="6.78078">
        <ele>197.3</ele>
        <time>2023-04-26T14:34:40.000Z</time>
      </trkpt>
      <trkpt lat="43.65479" lon="6.78067">
        <ele>195</ele>
        <time>2023-04-26T14:34:50.000Z</time>
      </trkpt>
      <trkpt lat="43.655" lon="6.78057">
        <ele>195.3</ele>
        <time>2023-04-26T14:35:00.000Z</time>
      </trkpt>
      <trkpt lat="43.65508" lon="6.7805">
        <ele>195.8</ele>
        <time>2023-04-26T14:35:10.000Z</time>
      </trkpt>
      <trkpt lat="43.65503" lon="6.78036">
        <ele>195.5</ele>
        <time>2023-04-26T14:35:20.000Z</time>
      </trkpt>
      <trkpt lat="43.65497" lon="6.78018">
        <ele>195.7</ele>
        <time>2023-04-26T14:35:30.000Z</time>
      </trkpt>
      <trkpt lat="43.65501" lon="6.78006">
        <ele>195.3</ele>
        <time>2023-04-26T14:35:40.000Z</time>
      </trkpt>
      <trkpt lat="43.65507" lon="6.77989">
        <ele>195</ele>
        <time>2023-04-26T14:35:51.000Z</time>
      </trkpt>
      <trkpt lat="43.6551" lon="6.77981">
        <ele>194.7</ele>
        <time>2023-04-26T14:36:03.000Z</time>
      </trkpt>
      <trkpt lat="43.65519" lon="6.77965">
        <ele>194.5</ele>
        <time>2023-04-26T14:36:13.000Z</time>
      </trkpt>
      <trkpt lat="43.65521" lon="6.77951">
        <ele>195</ele>
        <time>2023-04-26T14:36:23.000Z</time>
      </trkpt>
      <trkpt lat="43.65526" lon="6.77944">
        <ele>193</ele>
        <time>2023-04-26T14:36:33.000Z</time>
      </trkpt>
      <trkpt lat="43.65517" lon="6.77936">
        <ele>195.1</ele>
        <time>2023-04-26T14:36:43.000Z</time>
      </trkpt>
      <trkpt lat="43.65516" lon="6.77923">
        <ele>196</ele>
        <time>2023-04-26T14:36:54.000Z</time>
      </trkpt>
      <trkpt lat="43.65515" lon="6.77909">
        <ele>194</ele>
        <time>2023-04-26T14:37:04.000Z</time>
      </trkpt>
      <trkpt lat="43.65503" lon="6.77896">
        <ele>195.2</ele>
        <time>2023-04-26T14:37:14.000Z</time>
      </trkpt>
      <trkpt lat="43.655" lon="6.77883">
        <ele>195.6</ele>
        <time>2023-04-26T14:37:24.000Z</time>
      </trkpt>
      <trkpt lat="43.65508" lon="6.7787">
        <ele>195</ele>
        <time>2023-04-26T14:37:34.000Z</time>
      </trkpt>
      <trkpt lat="43.65513" lon="6.7786">
        <ele>196.7</ele>
        <time>2023-04-26T14:37:45.000Z</time>
      </trkpt>
      <trkpt lat="43.6552" lon="6.77845">
        <ele>196.6</ele>
        <time>2023-04-26T14:37:55.000Z</time>
      </trkpt>
      <trkpt lat="43.6552" lon="6.77828">
        <ele>196.9</ele>
        <time>2023-04-26T14:38:05.000Z</time>
      </trkpt>
      <trkpt lat="43.65524" lon="6.77813">
        <ele>196.9</ele>
        <time>2023-04-26T14:38:15.000Z</time>
      </trkpt>
      <trkpt lat="43.65524" lon="6.77808">
        <ele>197.3</ele>
        <time>2023-04-26T14:38:25.000Z</time>
      </trkpt>
      <trkpt lat="43.65533" lon="6.77805">
        <ele>197</ele>
        <time>2023-04-26T14:38:36.000Z</time>
      </trkpt>
      <trkpt lat="43.65539" lon="6.77797">
        <ele>196.7</ele>
        <time>2023-04-26T14:38:47.000Z</time>
      </trkpt>
      <trkpt lat="43.65552" lon="6.77783">
        <ele>196</ele>
        <time>2023-04-26T14:38:57.000Z</time>
      </trkpt>
      <trkpt lat="43.65558" lon="6.77778">
        <ele>196</ele>
        <time>2023-04-26T14:39:07.000Z</time>
      </trkpt>
      <trkpt lat="43.65573" lon="6.77764">
        <ele>196.4</ele>
        <time>2023-04-26T14:39:17.000Z</time>
      </trkpt>
      <trkpt lat="43.65585" lon="6.77762">
        <ele>197.3</ele>
        <time>2023-04-26T14:39:29.000Z</time>
      </trkpt>
      <trkpt lat="43.65597" lon="6.77752">
        <ele>196.9</ele>
        <time>2023-04-26T14:39:39.000Z</time>
      </trkpt>
      <trkpt lat="43.65605" lon="6.77749">
        <ele>196.1</ele>
        <time>2023-04-26T14:39:49.000Z</time>
      </trkpt>
      <trkpt lat="43.65611" lon="6.77744">
        <ele>196.5</ele>
        <time>2023-04-26T14:39:59.000Z</time>
      </trkpt>
      <trkpt lat="43.65625" lon="6.77739">
        <ele>196</ele>
        <time>2023-04-26T14:40:10.000Z</time>
      </trkpt>
      <trkpt lat="43.65635" lon="6.77732">
        <ele>196.7</ele>
        <time>2023-04-26T14:40:20.000Z</time>
      </trkpt>
      <trkpt lat="43.65646" lon="6.77722">
        <ele>195.9</ele>
        <time>2023-04-26T14:40:30.000Z</time>
      </trkpt>
      <trkpt lat="43.65652" lon="6.7772">
        <ele>196</ele>
        <time>2023-04-26T14:40:42.000Z</time>
      </trkpt>
      <trkpt lat="43.65656" lon="6.77727">
        <ele>197.1</ele>
        <time>2023-04-26T14:40:56.000Z</time>
      </trkpt>
      <trkpt lat="43.65658" lon="6.77723">
        <ele>196</ele>
        <time>2023-04-26T14:41:08.000Z</time>
      </trkpt>
      <trkpt lat="43.6566" lon="6.7772">
        <ele>197.3</ele>
        <time>2023-04-26T14:41:19.000Z</time>
      </trkpt>
      <trkpt lat="43.65663" lon="6.77726">
        <ele>197.5</ele>
        <time>2023-04-26T14:41:29.000Z</time>
      </trkpt>
      <trkpt lat="43.65668" lon="6.77735">
        <ele>197.1</ele>
        <time>2023-04-26T14:41:39.000Z</time>
      </trkpt>
      <trkpt lat="43.65682" lon="6.77735">
        <ele>197.3</ele>
        <time>2023-04-26T14:41:49.000Z</time>
      </trkpt>
      <trkpt lat="43.65698" lon="6.77734">
        <ele>197.5</ele>
        <time>2023-04-26T14:41:59.000Z</time>
      </trkpt>
      <trkpt lat="43.65703" lon="6.77729">
        <ele>197.5</ele>
        <time>2023-04-26T14:42:09.000Z</time>
      </trkpt>
      <trkpt lat="43.65707" lon="6.77725">
        <ele>196</ele>
        <time>2023-04-26T14:42:20.000Z</time>
      </trkpt>
      <trkpt lat="43.65711" lon="6.77722">
        <ele>196.5</ele>
        <time>2023-04-26T14:42:30.000Z</time>
      </trkpt>
      <trkpt lat="43.65714" lon="6.77712">
        <ele>197.1</ele>
        <time>2023-04-26T14:42:40.000Z</time>
      </trkpt>
      <trkpt lat="43.65711" lon="6.77712">
        <ele>197.2</ele>
        <time>2023-04-26T14:42:50.000Z</time>
      </trkpt>
      <trkpt lat="43.65712" lon="6.77714">
        <ele>196.7</ele>
        <time>2023-04-26T14:43:00.000Z</time>
      </trkpt>
      <trkpt lat="43.65712" lon="6.77721">
        <ele>195.4</ele>
        <time>2023-04-26T14:43:10.000Z</time>
      </trkpt>
      <trkpt lat="43.65712" lon="6.77724">
        <ele>197</ele>
        <time>2023-04-26T14:43:20.000Z</time>
      </trkpt>
      <trkpt lat="43.65714" lon="6.77722">
        <ele>197</ele>
        <time>2023-04-26T14:43:30.000Z</time>
      </trkpt>
      <trkpt lat="43.65716" lon="6.77719">
        <ele>196.8</ele>
        <time>2023-04-26T14:43:40.000Z</time>
      </trkpt>
      <trkpt lat="43.65718" lon="6.77719">
        <ele>196.2</ele>
        <time>2023-04-26T14:43:51.000Z</time>
      </trkpt>
      <trkpt lat="43.65727" lon="6.77724">
        <ele>196.2</ele>
        <time>2023-04-26T14:44:01.000Z</time>
      </trkpt>
      <trkpt lat="43.65733" lon="6.77734">
        <ele>196.8</ele>
        <time>2023-04-26T14:44:11.000Z</time>
      </trkpt>
      <trkpt lat="43.65744" lon="6.77735">
        <ele>196.7</ele>
        <time>2023-04-26T14:44:21.000Z</time>
      </trkpt>
      <trkpt lat="43.65755" lon="6.77734">
        <ele>196.8</ele>
        <time>2023-04-26T14:44:31.000Z</time>
      </trkpt>
      <trkpt lat="43.65763" lon="6.77733">
        <ele>196</ele>
        <time>2023-04-26T14:44:42.000Z</time>
      </trkpt>
      <trkpt lat="43.65772" lon="6.77732">
        <ele>198.3</ele>
        <time>2023-04-26T14:44:52.000Z</time>
      </trkpt>
      <trkpt lat="43.65783" lon="6.77728">
        <ele>197.5</ele>
        <time>2023-04-26T14:45:04.000Z</time>
      </trkpt>
      <trkpt lat="43.65797" lon="6.77721">
        <ele>197.4</ele>
        <time>2023-04-26T14:45:14.000Z</time>
      </trkpt>
      <trkpt lat="43.65808" lon="6.7772">
        <ele>197.4</ele>
        <time>2023-04-26T14:45:24.000Z</time>
      </trkpt>
      <trkpt lat="43.65817" lon="6.77725">
        <ele>197.7</ele>
        <time>2023-04-26T14:45:34.000Z</time>
      </trkpt>
      <trkpt lat="43.65827" lon="6.77716">
        <ele>197.8</ele>
        <time>2023-04-26T14:45:44.000Z</time>
      </trkpt>
      <trkpt lat="43.65834" lon="6.77703">
        <ele>198.1</ele>
        <time>2023-04-26T14:45:54.000Z</time>
      </trkpt>
      <trkpt lat="43.65844" lon="6.77695">
        <ele>198.7</ele>
        <time>2023-04-26T14:46:04.000Z</time>
      </trkpt>
      <trkpt lat="43.65854" lon="6.77693">
        <ele>198.6</ele>
        <time>2023-04-26T14:46:14.000Z</time>
      </trkpt>
      <trkpt lat="43.65862" lon="6.77691">
        <ele>198.6</ele>
        <time>2023-04-26T14:46:24.000Z</time>
      </trkpt>
      <trkpt lat="43.6587" lon="6.7769">
        <ele>198.7</ele>
        <time>2023-04-26T14:46:34.000Z</time>
      </trkpt>
      <trkpt lat="43.65878" lon="6.77689">
        <ele>198.7</ele>
        <time>2023-04-26T14:46:44.000Z</time>
      </trkpt>
      <trkpt lat="43.65889" lon="6.77688">
        <ele>198.7</ele>
        <time>2023-04-26T14:46:54.000Z</time>
      </trkpt>
      <trkpt lat="43.65901" lon="6.77687">
        <ele>198.8</ele>
        <time>2023-04-26T14:47:04.000Z</time>
      </trkpt>
      <trkpt lat="43.65911" lon="6.77682">
        <ele>198</ele>
        <time>2023-04-26T14:47:15.000Z</time>
      </trkpt>
      <trkpt lat="43.65922" lon="6.77676">
        <ele>199.1</ele>
        <time>2023-04-26T14:47:25.000Z</time>
      </trkpt>
      <trkpt lat="43.65932" lon="6.77675">
        <ele>199</ele>
        <time>2023-04-26T14:47:35.000Z</time>
      </trkpt>
      <trkpt lat="43.65942" lon="6.77672">
        <ele>198.9</ele>
        <time>2023-04-26T14:47:45.000Z</time>
      </trkpt>
      <trkpt lat="43.65948" lon="6.7767">
        <ele>199.5</ele>
        <time>2023-04-26T14:47:55.000Z</time>
      </trkpt>
      <trkpt lat="43.65961" lon="6.77665">
        <ele>199.1</ele>
        <time>2023-04-26T14:48:05.000Z</time>
      </trkpt>
      <trkpt lat="43.6597" lon="6.77651">
        <ele>199.4</ele>
        <time>2023-04-26T14:48:15.000Z</time>
      </trkpt>
      <trkpt lat="43.6598" lon="6.77647">
        <ele>199.8</ele>
        <time>2023-04-26T14:48:25.000Z</time>
      </trkpt>
      <trkpt lat="43.65983" lon="6.7765">
        <ele>199.8</ele>
        <time>2023-04-26T14:48:35.000Z</time>
      </trkpt>
      <trkpt lat="43.6598" lon="6.77646">
        <ele>199.8</ele>
        <time>2023-04-26T14:48:45.000Z</time>
      </trkpt>
      <trkpt lat="43.65981" lon="6.77642">
        <ele>199.9</ele>
        <time>2023-04-26T14:48:55.000Z</time>
      </trkpt>
      <trkpt lat="43.65982" lon="6.77643">
        <ele>199.6</ele>
        <time>2023-04-26T14:49:05.000Z</time>
      </trkpt>
      <trkpt lat="43.65982" lon="6.77646">
        <ele>199.4</ele>
        <time>2023-04-26T14:49:15.000Z</time>
      </trkpt>
      <trkpt lat="43.65983" lon="6.77648">
        <ele>199.4</ele>
        <time>2023-04-26T14:49:25.000Z</time>
      </trkpt>
      <trkpt lat="43.65984" lon="6.77648">
        <ele>199.3</ele>
        <time>2023-04-26T14:49:35.000Z</time>
      </trkpt>
      <trkpt lat="43.65984" lon="6.77649">
        <ele>199.4</ele>
        <time>2023-04-26T14:49:45.000Z</time>
      </trkpt>
      <trkpt lat="43.65984" lon="6.77649">
        <ele>199.1</ele>
        <time>2023-04-26T14:49:55.000Z</time>
      </trkpt>
      <trkpt lat="43.65987" lon="6.77646">
        <ele>197.9</ele>
        <time>2023-04-26T14:50:05.000Z</time>
      </trkpt>
      <trkpt lat="43.65996" lon="6.77644">
        <ele>196.9</ele>
        <time>2023-04-26T14:50:15.000Z</time>
      </trkpt>
      <trkpt lat="43.65996" lon="6.7765">
        <ele>194.5</ele>
        <time>2023-04-26T14:50:25.000Z</time>
      </trkpt>
      <trkpt lat="43.65998" lon="6.77655">
        <ele>194.9</ele>
        <time>2023-04-26T14:50:35.000Z</time>
      </trkpt>
      <trkpt lat="43.66003" lon="6.77647">
        <ele>194.7</ele>
        <time>2023-04-26T14:50:45.000Z</time>
      </trkpt>
      <trkpt lat="43.66007" lon="6.77641">
        <ele>195</ele>
        <time>2023-04-26T14:50:55.000Z</time>
      </trkpt>
      <trkpt lat="43.66004" lon="6.77638">
        <ele>194</ele>
        <time>2023-04-26T14:51:05.000Z</time>
      </trkpt>
      <trkpt lat="43.66003" lon="6.77638">
        <ele>195</ele>
        <time>2023-04-26T14:51:15.000Z</time>
      </trkpt>
      <trkpt lat="43.66004" lon="6.7763">
        <ele>195</ele>
        <time>2023-04-26T14:51:25.000Z</time>
      </trkpt>
      <trkpt lat="43.66008" lon="6.77629">
        <ele>195</ele>
        <time>2023-04-26T14:51:35.000Z</time>
      </trkpt>
      <trkpt lat="43.66009" lon="6.77631">
        <ele>195.1</ele>
        <time>2023-04-26T14:51:45.000Z</time>
      </trkpt>
      <trkpt lat="43.66004" lon="6.77631">
        <ele>195</ele>
        <time>2023-04-26T14:51:55.000Z</time>
      </trkpt>
      <trkpt lat="43.66002" lon="6.77634">
        <ele>195.3</ele>
        <time>2023-04-26T14:52:07.000Z</time>
      </trkpt>
      <trkpt lat="43.65996" lon="6.77637">
        <ele>194.3</ele>
        <time>2023-04-26T14:52:17.000Z</time>
      </trkpt>
      <trkpt lat="43.65995" lon="6.77639">
        <ele>194</ele>
        <time>2023-04-26T14:52:27.000Z</time>
      </trkpt>
      <trkpt lat="43.65992" lon="6.77648">
        <ele>194.1</ele>
        <time>2023-04-26T14:52:39.000Z</time>
      </trkpt>
      <trkpt lat="43.65991" lon="6.7765">
        <ele>193</ele>
        <time>2023-04-26T14:52:50.000Z</time>
      </trkpt>
      <trkpt lat="43.65991" lon="6.77654">
        <ele>194</ele>
        <time>2023-04-26T14:53:00.000Z</time>
      </trkpt>
      <trkpt lat="43.65989" lon="6.77653">
        <ele>194.1</ele>
        <time>2023-04-26T14:53:10.000Z</time>
      </trkpt>
      <trkpt lat="43.65987" lon="6.77652">
        <ele>194.1</ele>
        <time>2023-04-26T14:53:20.000Z</time>
      </trkpt>
      <trkpt lat="43.6599" lon="6.77649">
        <ele>194</ele>
        <time>2023-04-26T14:53:30.000Z</time>
      </trkpt>
      <trkpt lat="43.65992" lon="6.77652">
        <ele>193.8</ele>
        <time>2023-04-26T14:53:40.000Z</time>
      </trkpt>
      <trkpt lat="43.65991" lon="6.77644">
        <ele>193.9</ele>
        <time>2023-04-26T14:53:50.000Z</time>
      </trkpt>
      <trkpt lat="43.65989" lon="6.77644">
        <ele>194.1</ele>
        <time>2023-04-26T14:54:00.000Z</time>
      </trkpt>
      <trkpt lat="43.65989" lon="6.77639">
        <ele>193</ele>
        <time>2023-04-26T14:54:10.000Z</time>
      </trkpt>
      <trkpt lat="43.65991" lon="6.77634">
        <ele>194.2</ele>
        <time>2023-04-26T14:54:20.000Z</time>
      </trkpt>
      <trkpt lat="43.65995" lon="6.7763">
        <ele>194</ele>
        <time>2023-04-26T14:54:30.000Z</time>
      </trkpt>
      <trkpt lat="43.65993" lon="6.77632">
        <ele>194</ele>
        <time>2023-04-26T14:54:41.000Z</time>
      </trkpt>
      <trkpt lat="43.65991" lon="6.77641">
        <ele>194</ele>
        <time>2023-04-26T14:54:51.000Z</time>
      </trkpt>
      <trkpt lat="43.65988" lon="6.77647">
        <ele>194</ele>
        <time>2023-04-26T14:55:01.000Z</time>
      </trkpt>
      <trkpt lat="43.65991" lon="6.77632">
        <ele>198</ele>
        <time>2023-04-26T14:55:14.000Z</time>
      </trkpt>
      <trkpt lat="43.6599" lon="6.77626">
        <ele>199</ele>
        <time>2023-04-26T14:55:24.000Z</time>
      </trkpt>
      <trkpt lat="43.6599" lon="6.7762">
        <ele>199.2</ele>
        <time>2023-04-26T14:55:34.000Z</time>
      </trkpt>
      <trkpt lat="43.65988" lon="6.77625">
        <ele>197</ele>
        <time>2023-04-26T14:55:46.000Z</time>
      </trkpt>
      <trkpt lat="43.65988" lon="6.77619">
        <ele>199.9</ele>
        <time>2023-04-26T14:55:56.000Z</time>
      </trkpt>
      <trkpt lat="43.65985" lon="6.77617">
        <ele>199.7</ele>
        <time>2023-04-26T14:56:06.000Z</time>
      </trkpt>
      <trkpt lat="43.65975" lon="6.77623">
        <ele>199.8</ele>
        <time>2023-04-26T14:56:16.000Z</time>
      </trkpt>
      <trkpt lat="43.65972" lon="6.77623">
        <ele>201.3</ele>
        <time>2023-04-26T14:56:26.000Z</time>
      </trkpt>
      <trkpt lat="43.65974" lon="6.77628">
        <ele>201</ele>
        <time>2023-04-26T14:56:36.000Z</time>
      </trkpt>
      <trkpt lat="43.65982" lon="6.77621">
        <ele>203.6</ele>
        <time>2023-04-26T14:56:47.000Z</time>
      </trkpt>
      <trkpt lat="43.65983" lon="6.77619">
        <ele>204.5</ele>
        <time>2023-04-26T14:56:57.000Z</time>
      </trkpt>
      <trkpt lat="43.6598" lon="6.77621">
        <ele>206.6</ele>
        <time>2023-04-26T14:57:07.000Z</time>
      </trkpt>
      <trkpt lat="43.65974" lon="6.77619">
        <ele>207.1</ele>
        <time>2023-04-26T14:57:17.000Z</time>
      </trkpt>
      <trkpt lat="43.65968" lon="6.77619">
        <ele>208</ele>
        <time>2023-04-26T14:57:27.000Z</time>
      </trkpt>
      <trkpt lat="43.65969" lon="6.77614">
        <ele>208.6</ele>
        <time>2023-04-26T14:57:37.000Z</time>
      </trkpt>
      <trkpt lat="43.65959" lon="6.77611">
        <ele>208.7</ele>
        <time>2023-04-26T14:57:47.000Z</time>
      </trkpt>
      <trkpt lat="43.65948" lon="6.77602">
        <ele>209</ele>
        <time>2023-04-26T14:57:59.000Z</time>
      </trkpt>
      <trkpt lat="43.65941" lon="6.77596">
        <ele>212</ele>
        <time>2023-04-26T14:58:09.000Z</time>
      </trkpt>
      <trkpt lat="43.65925" lon="6.776">
        <ele>212.6</ele>
        <time>2023-04-26T14:58:21.000Z</time>
      </trkpt>
      <trkpt lat="43.65906" lon="6.77603">
        <ele>213.5</ele>
        <time>2023-04-26T14:58:31.000Z</time>
      </trkpt>
      <trkpt lat="43.65897" lon="6.77601">
        <ele>213.3</ele>
        <time>2023-04-26T14:58:41.000Z</time>
      </trkpt>
      <trkpt lat="43.65894" lon="6.77601">
        <ele>214</ele>
        <time>2023-04-26T14:58:51.000Z</time>
      </trkpt>
      <trkpt lat="43.65885" lon="6.776">
        <ele>215.9</ele>
        <time>2023-04-26T14:59:01.000Z</time>
      </trkpt>
      <trkpt lat="43.65874" lon="6.77602">
        <ele>216.3</ele>
        <time>2023-04-26T14:59:11.000Z</time>
      </trkpt>
      <trkpt lat="43.65863" lon="6.77603">
        <ele>216.9</ele>
        <time>2023-04-26T14:59:21.000Z</time>
      </trkpt>
      <trkpt lat="43.6585" lon="6.77592">
        <ele>217.2</ele>
        <time>2023-04-26T14:59:31.000Z</time>
      </trkpt>
      <trkpt lat="43.6584" lon="6.77602">
        <ele>217.5</ele>
        <time>2023-04-26T14:59:41.000Z</time>
      </trkpt>
      <trkpt lat="43.6583" lon="6.77598">
        <ele>218.4</ele>
        <time>2023-04-26T14:59:51.000Z</time>
      </trkpt>
      <trkpt lat="43.65817" lon="6.77596">
        <ele>218.7</ele>
        <time>2023-04-26T15:00:01.000Z</time>
      </trkpt>
      <trkpt lat="43.65811" lon="6.77598">
        <ele>219.5</ele>
        <time>2023-04-26T15:00:11.000Z</time>
      </trkpt>
      <trkpt lat="43.65802" lon="6.77601">
        <ele>220.6</ele>
        <time>2023-04-26T15:00:21.000Z</time>
      </trkpt>
      <trkpt lat="43.65793" lon="6.77601">
        <ele>221.3</ele>
        <time>2023-04-26T15:00:31.000Z</time>
      </trkpt>
      <trkpt lat="43.65791" lon="6.77598">
        <ele>222.2</ele>
        <time>2023-04-26T15:00:41.000Z</time>
      </trkpt>
      <trkpt lat="43.65782" lon="6.77593">
        <ele>223.5</ele>
        <time>2023-04-26T15:00:51.000Z</time>
      </trkpt>
      <trkpt lat="43.65778" lon="6.77589">
        <ele>225.1</ele>
        <time>2023-04-26T15:01:01.000Z</time>
      </trkpt>
      <trkpt lat="43.65775" lon="6.77584">
        <ele>227.1</ele>
        <time>2023-04-26T15:01:11.000Z</time>
      </trkpt>
      <trkpt lat="43.65766" lon="6.77585">
        <ele>227.3</ele>
        <time>2023-04-26T15:01:21.000Z</time>
      </trkpt>
      <trkpt lat="43.65758" lon="6.7759">
        <ele>227.8</ele>
        <time>2023-04-26T15:01:31.000Z</time>
      </trkpt>
      <trkpt lat="43.65747" lon="6.77589">
        <ele>227.7</ele>
        <time>2023-04-26T15:01:41.000Z</time>
      </trkpt>
      <trkpt lat="43.65737" lon="6.77589">
        <ele>228</ele>
        <time>2023-04-26T15:01:51.000Z</time>
      </trkpt>
      <trkpt lat="43.6573" lon="6.77584">
        <ele>228</ele>
        <time>2023-04-26T15:02:02.000Z</time>
      </trkpt>
      <trkpt lat="43.6572" lon="6.77596">
        <ele>228</ele>
        <time>2023-04-26T15:02:13.000Z</time>
      </trkpt>
      <trkpt lat="43.65707" lon="6.77606">
        <ele>228.9</ele>
        <time>2023-04-26T15:02:23.000Z</time>
      </trkpt>
      <trkpt lat="43.65702" lon="6.77622">
        <ele>229.1</ele>
        <time>2023-04-26T15:02:33.000Z</time>
      </trkpt>
      <trkpt lat="43.65687" lon="6.77626">
        <ele>229</ele>
        <time>2023-04-26T15:02:43.000Z</time>
      </trkpt>
      <trkpt lat="43.6568" lon="6.77593">
        <ele>228.9</ele>
        <time>2023-04-26T15:02:53.000Z</time>
      </trkpt>
      <trkpt lat="43.65663" lon="6.77612">
        <ele>229.6</ele>
        <time>2023-04-26T15:03:07.000Z</time>
      </trkpt>
      <trkpt lat="43.65648" lon="6.77639">
        <ele>230.3</ele>
        <time>2023-04-26T15:03:17.000Z</time>
      </trkpt>
      <trkpt lat="43.6564" lon="6.77642">
        <ele>231.5</ele>
        <time>2023-04-26T15:03:27.000Z</time>
      </trkpt>
      <trkpt lat="43.65631" lon="6.77636">
        <ele>231.2</ele>
        <time>2023-04-26T15:03:37.000Z</time>
      </trkpt>
      <trkpt lat="43.65626" lon="6.77627">
        <ele>230</ele>
        <time>2023-04-26T15:03:47.000Z</time>
      </trkpt>
      <trkpt lat="43.65615" lon="6.77633">
        <ele>229</ele>
        <time>2023-04-26T15:03:58.000Z</time>
      </trkpt>
      <trkpt lat="43.65608" lon="6.7763">
        <ele>229.6</ele>
        <time>2023-04-26T15:04:08.000Z</time>
      </trkpt>
      <trkpt lat="43.65603" lon="6.77628">
        <ele>229.7</ele>
        <time>2023-04-26T15:04:18.000Z</time>
      </trkpt>
      <trkpt lat="43.65597" lon="6.77629">
        <ele>230.1</ele>
        <time>2023-04-26T15:04:28.000Z</time>
      </trkpt>
      <trkpt lat="43.65589" lon="6.77626">
        <ele>230.3</ele>
        <time>2023-04-26T15:04:38.000Z</time>
      </trkpt>
      <trkpt lat="43.65576" lon="6.77629">
        <ele>231.4</ele>
        <time>2023-04-26T15:04:48.000Z</time>
      </trkpt>
      <trkpt lat="43.6557" lon="6.77635">
        <ele>232</ele>
        <time>2023-04-26T15:04:58.000Z</time>
      </trkpt>
      <trkpt lat="43.65567" lon="6.77644">
        <ele>234</ele>
        <time>2023-04-26T15:05:08.000Z</time>
      </trkpt>
      <trkpt lat="43.65556" lon="6.77656">
        <ele>236</ele>
        <time>2023-04-26T15:05:20.000Z</time>
      </trkpt>
      <trkpt lat="43.65551" lon="6.77659">
        <ele>236</ele>
        <time>2023-04-26T15:05:30.000Z</time>
      </trkpt>
      <trkpt lat="43.65538" lon="6.77664">
        <ele>235.5</ele>
        <time>2023-04-26T15:05:40.000Z</time>
      </trkpt>
      <trkpt lat="43.65529" lon="6.77666">
        <ele>235.1</ele>
        <time>2023-04-26T15:05:50.000Z</time>
      </trkpt>
      <trkpt lat="43.65517" lon="6.77665">
        <ele>234</ele>
        <time>2023-04-26T15:06:00.000Z</time>
      </trkpt>
      <trkpt lat="43.65508" lon="6.77678">
        <ele>234</ele>
        <time>2023-04-26T15:06:12.000Z</time>
      </trkpt>
      <trkpt lat="43.65502" lon="6.77704">
        <ele>235</ele>
        <time>2023-04-26T15:06:24.000Z</time>
      </trkpt>
      <trkpt lat="43.65482" lon="6.77725">
        <ele>237</ele>
        <time>2023-04-26T15:06:37.000Z</time>
      </trkpt>
      <trkpt lat="43.65467" lon="6.77736">
        <ele>239.7</ele>
        <time>2023-04-26T15:06:48.000Z</time>
      </trkpt>
      <trkpt lat="43.65459" lon="6.77739">
        <ele>240.9</ele>
        <time>2023-04-26T15:06:58.000Z</time>
      </trkpt>
      <trkpt lat="43.6545" lon="6.77753">
        <ele>241.8</ele>
        <time>2023-04-26T15:07:08.000Z</time>
      </trkpt>
      <trkpt lat="43.65441" lon="6.77748">
        <ele>241</ele>
        <time>2023-04-26T15:07:21.000Z</time>
      </trkpt>
      <trkpt lat="43.65473" lon="6.7775">
        <ele>242.3</ele>
        <time>2023-04-26T15:07:31.000Z</time>
      </trkpt>
      <trkpt lat="43.65461" lon="6.77759">
        <ele>243.7</ele>
        <time>2023-04-26T15:07:41.000Z</time>
      </trkpt>
      <trkpt lat="43.65444" lon="6.77774">
        <ele>245</ele>
        <time>2023-04-26T15:07:53.000Z</time>
      </trkpt>
      <trkpt lat="43.65428" lon="6.77787">
        <ele>247</ele>
        <time>2023-04-26T15:08:06.000Z</time>
      </trkpt>
      <trkpt lat="43.6542" lon="6.77794">
        <ele>248</ele>
        <time>2023-04-26T15:08:16.000Z</time>
      </trkpt>
      <trkpt lat="43.65413" lon="6.77799">
        <ele>249</ele>
        <time>2023-04-26T15:08:28.000Z</time>
      </trkpt>
      <trkpt lat="43.65417" lon="6.77796">
        <ele>249.9</ele>
        <time>2023-04-26T15:08:38.000Z</time>
      </trkpt>
      <trkpt lat="43.65414" lon="6.7779">
        <ele>250</ele>
        <time>2023-04-26T15:08:48.000Z</time>
      </trkpt>
      <trkpt lat="43.65399" lon="6.77791">
        <ele>252</ele>
        <time>2023-04-26T15:09:00.000Z</time>
      </trkpt>
      <trkpt lat="43.65383" lon="6.778">
        <ele>253</ele>
        <time>2023-04-26T15:09:12.000Z</time>
      </trkpt>
      <trkpt lat="43.65377" lon="6.77817">
        <ele>255</ele>
        <time>2023-04-26T15:09:24.000Z</time>
      </trkpt>
      <trkpt lat="43.65373" lon="6.77827">
        <ele>257</ele>
        <time>2023-04-26T15:09:34.000Z</time>
      </trkpt>
      <trkpt lat="43.65371" lon="6.77835">
        <ele>259.2</ele>
        <time>2023-04-26T15:09:44.000Z</time>
      </trkpt>
      <trkpt lat="43.65368" lon="6.77839">
        <ele>260.7</ele>
        <time>2023-04-26T15:09:54.000Z</time>
      </trkpt>
      <trkpt lat="43.65366" lon="6.77848">
        <ele>261.5</ele>
        <time>2023-04-26T15:10:04.000Z</time>
      </trkpt>
      <trkpt lat="43.65367" lon="6.77853">
        <ele>262.5</ele>
        <time>2023-04-26T15:10:14.000Z</time>
      </trkpt>
      <trkpt lat="43.65365" lon="6.77855">
        <ele>263.8</ele>
        <time>2023-04-26T15:10:24.000Z</time>
      </trkpt>
      <trkpt lat="43.6536" lon="6.77862">
        <ele>264.3</ele>
        <time>2023-04-26T15:10:34.000Z</time>
      </trkpt>
      <trkpt lat="43.65356" lon="6.77872">
        <ele>265.3</ele>
        <time>2023-04-26T15:10:44.000Z</time>
      </trkpt>
      <trkpt lat="43.65346" lon="6.77885">
        <ele>266</ele>
        <time>2023-04-26T15:10:57.000Z</time>
      </trkpt>
      <trkpt lat="43.65337" lon="6.77887">
        <ele>267</ele>
        <time>2023-04-26T15:11:07.000Z</time>
      </trkpt>
      <trkpt lat="43.65329" lon="6.77899">
        <ele>268</ele>
        <time>2023-04-26T15:11:18.000Z</time>
      </trkpt>
      <trkpt lat="43.65326" lon="6.77916">
        <ele>269</ele>
        <time>2023-04-26T15:11:28.000Z</time>
      </trkpt>
      <trkpt lat="43.65322" lon="6.77918">
        <ele>270</ele>
        <time>2023-04-26T15:11:40.000Z</time>
      </trkpt>
      <trkpt lat="43.6533" lon="6.77916">
        <ele>271.6</ele>
        <time>2023-04-26T15:11:50.000Z</time>
      </trkpt>
      <trkpt lat="43.65332" lon="6.77918">
        <ele>271.5</ele>
        <time>2023-04-26T15:12:00.000Z</time>
      </trkpt>
      <trkpt lat="43.6533" lon="6.77929">
        <ele>271.1</ele>
        <time>2023-04-26T15:12:10.000Z</time>
      </trkpt>
      <trkpt lat="43.65331" lon="6.77927">
        <ele>271.8</ele>
        <time>2023-04-26T15:12:20.000Z</time>
      </trkpt>
      <trkpt lat="43.65324" lon="6.7793">
        <ele>273</ele>
        <time>2023-04-26T15:12:34.000Z</time>
      </trkpt>
      <trkpt lat="43.65324" lon="6.77945">
        <ele>275</ele>
        <time>2023-04-26T15:12:50.000Z</time>
      </trkpt>
      <trkpt lat="43.65314" lon="6.77945">
        <ele>277</ele>
        <time>2023-04-26T15:13:03.000Z</time>
      </trkpt>
      <trkpt lat="43.65326" lon="6.77943">
        <ele>278</ele>
        <time>2023-04-26T15:13:16.000Z</time>
      </trkpt>
      <trkpt lat="43.6532" lon="6.77955">
        <ele>280</ele>
        <time>2023-04-26T15:13:28.000Z</time>
      </trkpt>
      <trkpt lat="43.65304" lon="6.77961">
        <ele>281.2</ele>
        <time>2023-04-26T15:13:39.000Z</time>
      </trkpt>
      <trkpt lat="43.6529" lon="6.77962">
        <ele>281</ele>
        <time>2023-04-26T15:13:49.000Z</time>
      </trkpt>
      <trkpt lat="43.65278" lon="6.77968">
        <ele>284</ele>
        <time>2023-04-26T15:13:59.000Z</time>
      </trkpt>
      <trkpt lat="43.65284" lon="6.77971">
        <ele>285</ele>
        <time>2023-04-26T15:14:12.000Z</time>
      </trkpt>
      <trkpt lat="43.65266" lon="6.77978">
        <ele>286</ele>
        <time>2023-04-26T15:14:24.000Z</time>
      </trkpt>
      <trkpt lat="43.65259" lon="6.77977">
        <ele>287.8</ele>
        <time>2023-04-26T15:14:34.000Z</time>
      </trkpt>
      <trkpt lat="43.65244" lon="6.77998">
        <ele>289</ele>
        <time>2023-04-26T15:14:47.000Z</time>
      </trkpt>
      <trkpt lat="43.65235" lon="6.77992">
        <ele>290</ele>
        <time>2023-04-26T15:15:00.000Z</time>
      </trkpt>
      <trkpt lat="43.65225" lon="6.77999">
        <ele>292</ele>
        <time>2023-04-26T15:15:12.000Z</time>
      </trkpt>
      <trkpt lat="43.65209" lon="6.78006">
        <ele>293</ele>
        <time>2023-04-26T15:15:22.000Z</time>
      </trkpt>
      <trkpt lat="43.65195" lon="6.78016">
        <ele>294</ele>
        <time>2023-04-26T15:15:34.000Z</time>
      </trkpt>
      <trkpt lat="43.65185" lon="6.78019">
        <ele>296</ele>
        <time>2023-04-26T15:15:46.000Z</time>
      </trkpt>
      <trkpt lat="43.6516" lon="6.78009">
        <ele>297.7</ele>
        <time>2023-04-26T15:15:58.000Z</time>
      </trkpt>
      <trkpt lat="43.65129" lon="6.7799">
        <ele>298</ele>
        <time>2023-04-26T15:16:10.000Z</time>
      </trkpt>
      <trkpt lat="43.65127" lon="6.77998">
        <ele>300</ele>
        <time>2023-04-26T15:16:22.000Z</time>
      </trkpt>
      <trkpt lat="43.65146" lon="6.78006">
        <ele>301</ele>
        <time>2023-04-26T15:16:34.000Z</time>
      </trkpt>
      <trkpt lat="43.65161" lon="6.78027">
        <ele>301</ele>
        <time>2023-04-26T15:16:46.000Z</time>
      </trkpt>
      <trkpt lat="43.6518" lon="6.78058">
        <ele>302.1</ele>
        <time>2023-04-26T15:16:56.000Z</time>
      </trkpt>
      <trkpt lat="43.65182" lon="6.78067">
        <ele>302</ele>
        <time>2023-04-26T15:17:06.000Z</time>
      </trkpt>
      <trkpt lat="43.65181" lon="6.78067">
        <ele>301</ele>
        <time>2023-04-26T15:17:18.000Z</time>
      </trkpt>
      <trkpt lat="43.65183" lon="6.7807">
        <ele>301</ele>
        <time>2023-04-26T15:17:30.000Z</time>
      </trkpt>
      <trkpt lat="43.65182" lon="6.7807">
        <ele>301</ele>
        <time>2023-04-26T15:17:42.000Z</time>
      </trkpt>
      <trkpt lat="43.65182" lon="6.78059">
        <ele>302</ele>
        <time>2023-04-26T15:17:54.000Z</time>
      </trkpt>
      <trkpt lat="43.65181" lon="6.78053">
        <ele>302</ele>
        <time>2023-04-26T15:18:06.000Z</time>
      </trkpt>
      <trkpt lat="43.65179" lon="6.78041">
        <ele>304</ele>
        <time>2023-04-26T15:18:23.000Z</time>
      </trkpt>
      <trkpt lat="43.65144" lon="6.7805">
        <ele>306</ele>
        <time>2023-04-26T15:18:35.000Z</time>
      </trkpt>
      <trkpt lat="43.65139" lon="6.78065">
        <ele>308</ele>
        <time>2023-04-26T15:18:46.000Z</time>
      </trkpt>
      <trkpt lat="43.6514" lon="6.7807">
        <ele>310</ele>
        <time>2023-04-26T15:18:58.000Z</time>
      </trkpt>
      <trkpt lat="43.65143" lon="6.78075">
        <ele>312</ele>
        <time>2023-04-26T15:19:10.000Z</time>
      </trkpt>
      <trkpt lat="43.65136" lon="6.78079">
        <ele>313</ele>
        <time>2023-04-26T15:19:22.000Z</time>
      </trkpt>
      <trkpt lat="43.65125" lon="6.78083">
        <ele>314</ele>
        <time>2023-04-26T15:19:34.000Z</time>
      </trkpt>
      <trkpt lat="43.65118" lon="6.78087">
        <ele>315</ele>
        <time>2023-04-26T15:19:46.000Z</time>
      </trkpt>
      <trkpt lat="43.65107" lon="6.7809">
        <ele>317</ele>
        <time>2023-04-26T15:19:58.000Z</time>
      </trkpt>
      <trkpt lat="43.65099" lon="6.78091">
        <ele>316</ele>
        <time>2023-04-26T15:20:18.000Z</time>
      </trkpt>
      <trkpt lat="43.6509" lon="6.78088">
        <ele>321</ele>
        <time>2023-04-26T15:20:29.000Z</time>
      </trkpt>
      <trkpt lat="43.65085" lon="6.78096">
        <ele>322.9</ele>
        <time>2023-04-26T15:20:39.000Z</time>
      </trkpt>
      <trkpt lat="43.65077" lon="6.78098">
        <ele>323.2</ele>
        <time>2023-04-26T15:20:49.000Z</time>
      </trkpt>
      <trkpt lat="43.65074" lon="6.78099">
        <ele>322.1</ele>
        <time>2023-04-26T15:20:59.000Z</time>
      </trkpt>
      <trkpt lat="43.65072" lon="6.78094">
        <ele>325</ele>
        <time>2023-04-26T15:21:11.000Z</time>
      </trkpt>
      <trkpt lat="43.65075" lon="6.78092">
        <ele>326.2</ele>
        <time>2023-04-26T15:21:21.000Z</time>
      </trkpt>
      <trkpt lat="43.65071" lon="6.78093">
        <ele>327</ele>
        <time>2023-04-26T15:21:32.000Z</time>
      </trkpt>
      <trkpt lat="43.65078" lon="6.78088">
        <ele>328</ele>
        <time>2023-04-26T15:21:44.000Z</time>
      </trkpt>
      <trkpt lat="43.65072" lon="6.78083">
        <ele>328</ele>
        <time>2023-04-26T15:21:54.000Z</time>
      </trkpt>
      <trkpt lat="43.65075" lon="6.78077">
        <ele>330</ele>
        <time>2023-04-26T15:22:05.000Z</time>
      </trkpt>
      <trkpt lat="43.65067" lon="6.78073">
        <ele>331.8</ele>
        <time>2023-04-26T15:22:15.000Z</time>
      </trkpt>
      <trkpt lat="43.65055" lon="6.78076">
        <ele>333</ele>
        <time>2023-04-26T15:22:25.000Z</time>
      </trkpt>
      <trkpt lat="43.6505" lon="6.78082">
        <ele>333.9</ele>
        <time>2023-04-26T15:22:35.000Z</time>
      </trkpt>
      <trkpt lat="43.6505" lon="6.7808">
        <ele>335</ele>
        <time>2023-04-26T15:22:45.000Z</time>
      </trkpt>
      <trkpt lat="43.65046" lon="6.78088">
        <ele>335</ele>
        <time>2023-04-26T15:22:55.000Z</time>
      </trkpt>
      <trkpt lat="43.65033" lon="6.78084">
        <ele>335</ele>
        <time>2023-04-26T15:23:07.000Z</time>
      </trkpt>
      <trkpt lat="43.65025" lon="6.78088">
        <ele>336</ele>
        <time>2023-04-26T15:23:19.000Z</time>
      </trkpt>
      <trkpt lat="43.65025" lon="6.78095">
        <ele>337</ele>
        <time>2023-04-26T15:23:31.000Z</time>
      </trkpt>
      <trkpt lat="43.65021" lon="6.78096">
        <ele>339.3</ele>
        <time>2023-04-26T15:23:41.000Z</time>
      </trkpt>
      <trkpt lat="43.65024" lon="6.78097">
        <ele>340.6</ele>
        <time>2023-04-26T15:23:51.000Z</time>
      </trkpt>
      <trkpt lat="43.65022" lon="6.78098">
        <ele>341.8</ele>
        <time>2023-04-26T15:24:01.000Z</time>
      </trkpt>
      <trkpt lat="43.65024" lon="6.78098">
        <ele>341.4</ele>
        <time>2023-04-26T15:24:11.000Z</time>
      </trkpt>
      <trkpt lat="43.65027" lon="6.78096">
        <ele>344</ele>
        <time>2023-04-26T15:24:21.000Z</time>
      </trkpt>
      <trkpt lat="43.65033" lon="6.78089">
        <ele>345</ele>
        <time>2023-04-26T15:24:31.000Z</time>
      </trkpt>
      <trkpt lat="43.65037" lon="6.78085">
        <ele>346.4</ele>
        <time>2023-04-26T15:24:41.000Z</time>
      </trkpt>
      <trkpt lat="43.6504" lon="6.78084">
        <ele>347</ele>
        <time>2023-04-26T15:24:51.000Z</time>
      </trkpt>
      <trkpt lat="43.65046" lon="6.78086">
        <ele>348.1</ele>
        <time>2023-04-26T15:25:01.000Z</time>
      </trkpt>
      <trkpt lat="43.65047" lon="6.78079">
        <ele>349.2</ele>
        <time>2023-04-26T15:25:11.000Z</time>
      </trkpt>
      <trkpt lat="43.65049" lon="6.78074">
        <ele>350.1</ele>
        <time>2023-04-26T15:25:21.000Z</time>
      </trkpt>
      <trkpt lat="43.65049" lon="6.78075">
        <ele>350</ele>
        <time>2023-04-26T15:25:31.000Z</time>
      </trkpt>
      <trkpt lat="43.65048" lon="6.78076">
        <ele>352</ele>
        <time>2023-04-26T15:25:42.000Z</time>
      </trkpt>
      <trkpt lat="43.6503" lon="6.78071">
        <ele>353.6</ele>
        <time>2023-04-26T15:25:52.000Z</time>
      </trkpt>
      <trkpt lat="43.65027" lon="6.78058">
        <ele>354.6</ele>
        <time>2023-04-26T15:26:02.000Z</time>
      </trkpt>
      <trkpt lat="43.65029" lon="6.7805">
        <ele>355.8</ele>
        <time>2023-04-26T15:26:12.000Z</time>
      </trkpt>
      <trkpt lat="43.65023" lon="6.7805">
        <ele>356.3</ele>
        <time>2023-04-26T15:26:22.000Z</time>
      </trkpt>
      <trkpt lat="43.65017" lon="6.78053">
        <ele>355</ele>
        <time>2023-04-26T15:26:34.000Z</time>
      </trkpt>
      <trkpt lat="43.65008" lon="6.78056">
        <ele>358.9</ele>
        <time>2023-04-26T15:26:45.000Z</time>
      </trkpt>
      <trkpt lat="43.65001" lon="6.7805">
        <ele>359.1</ele>
        <time>2023-04-26T15:26:55.000Z</time>
      </trkpt>
      <trkpt lat="43.64996" lon="6.7805">
        <ele>360.2</ele>
        <time>2023-04-26T15:27:05.000Z</time>
      </trkpt>
      <trkpt lat="43.64986" lon="6.78057">
        <ele>361.2</ele>
        <time>2023-04-26T15:27:15.000Z</time>
      </trkpt>
      <trkpt lat="43.64985" lon="6.78051">
        <ele>362</ele>
        <time>2023-04-26T15:27:26.000Z</time>
      </trkpt>
      <trkpt lat="43.64981" lon="6.78046">
        <ele>362.9</ele>
        <time>2023-04-26T15:27:36.000Z</time>
      </trkpt>
      <trkpt lat="43.64976" lon="6.78047">
        <ele>364.8</ele>
        <time>2023-04-26T15:27:48.000Z</time>
      </trkpt>
      <trkpt lat="43.64972" lon="6.78045">
        <ele>364.5</ele>
        <time>2023-04-26T15:28:00.000Z</time>
      </trkpt>
      <trkpt lat="43.64968" lon="6.78041">
        <ele>364.1</ele>
        <time>2023-04-26T15:28:10.000Z</time>
      </trkpt>
      <trkpt lat="43.64965" lon="6.78035">
        <ele>366</ele>
        <time>2023-04-26T15:28:21.000Z</time>
      </trkpt>
      <trkpt lat="43.64964" lon="6.78026">
        <ele>368.3</ele>
        <time>2023-04-26T15:28:31.000Z</time>
      </trkpt>
      <trkpt lat="43.64964" lon="6.78027">
        <ele>369.2</ele>
        <time>2023-04-26T15:28:41.000Z</time>
      </trkpt>
      <trkpt lat="43.64963" lon="6.78019">
        <ele>370</ele>
        <time>2023-04-26T15:28:51.000Z</time>
      </trkpt>
      <trkpt lat="43.64955" lon="6.7802">
        <ele>370.8</ele>
        <time>2023-04-26T15:29:01.000Z</time>
      </trkpt>
      <trkpt lat="43.64944" lon="6.78039">
        <ele>372.2</ele>
        <time>2023-04-26T15:29:11.000Z</time>
      </trkpt>
      <trkpt lat="43.64937" lon="6.78023">
        <ele>373.4</ele>
        <time>2023-04-26T15:29:24.000Z</time>
      </trkpt>
      <trkpt lat="43.6493" lon="6.78017">
        <ele>373</ele>
        <time>2023-04-26T15:29:35.000Z</time>
      </trkpt>
      <trkpt lat="43.64931" lon="6.78013">
        <ele>375.2</ele>
        <time>2023-04-26T15:29:45.000Z</time>
      </trkpt>
      <trkpt lat="43.64929" lon="6.78013">
        <ele>376.4</ele>
        <time>2023-04-26T15:29:55.000Z</time>
      </trkpt>
      <trkpt lat="43.64921" lon="6.78017">
        <ele>376</ele>
        <time>2023-04-26T15:30:05.000Z</time>
      </trkpt>
      <trkpt lat="43.64911" lon="6.78018">
        <ele>378.5</ele>
        <time>2023-04-26T15:30:17.000Z</time>
      </trkpt>
      <trkpt lat="43.64906" lon="6.78016">
        <ele>379.6</ele>
        <time>2023-04-26T15:30:27.000Z</time>
      </trkpt>
      <trkpt lat="43.64905" lon="6.78009">
        <ele>380.1</ele>
        <time>2023-04-26T15:30:37.000Z</time>
      </trkpt>
      <trkpt lat="43.64901" lon="6.78008">
        <ele>379.7</ele>
        <time>2023-04-26T15:30:49.000Z</time>
      </trkpt>
      <trkpt lat="43.64895" lon="6.78012">
        <ele>381</ele>
        <time>2023-04-26T15:31:00.000Z</time>
      </trkpt>
      <trkpt lat="43.64892" lon="6.78009">
        <ele>381</ele>
        <time>2023-04-26T15:31:12.000Z</time>
      </trkpt>
      <trkpt lat="43.6488" lon="6.78003">
        <ele>383</ele>
        <time>2023-04-26T15:31:24.000Z</time>
      </trkpt>
      <trkpt lat="43.64873" lon="6.78">
        <ele>385</ele>
        <time>2023-04-26T15:31:37.000Z</time>
      </trkpt>
      <trkpt lat="43.64861" lon="6.78">
        <ele>386</ele>
        <time>2023-04-26T15:31:49.000Z</time>
      </trkpt>
      <trkpt lat="43.64856" lon="6.77997">
        <ele>387</ele>
        <time>2023-04-26T15:32:00.000Z</time>
      </trkpt>
      <trkpt lat="43.64852" lon="6.77999">
        <ele>388</ele>
        <time>2023-04-26T15:32:10.000Z</time>
      </trkpt>
      <trkpt lat="43.64851" lon="6.78007">
        <ele>388.4</ele>
        <time>2023-04-26T15:32:21.000Z</time>
      </trkpt>
      <trkpt lat="43.64851" lon="6.78015">
        <ele>388.4</ele>
        <time>2023-04-26T15:32:31.000Z</time>
      </trkpt>
      <trkpt lat="43.64848" lon="6.78016">
        <ele>388</ele>
        <time>2023-04-26T15:32:41.000Z</time>
      </trkpt>
      <trkpt lat="43.64849" lon="6.78009">
        <ele>389.6</ele>
        <time>2023-04-26T15:32:51.000Z</time>
      </trkpt>
      <trkpt lat="43.64846" lon="6.78014">
        <ele>389</ele>
        <time>2023-04-26T15:33:01.000Z</time>
      </trkpt>
      <trkpt lat="43.64843" lon="6.7801">
        <ele>390</ele>
        <time>2023-04-26T15:33:13.000Z</time>
      </trkpt>
      <trkpt lat="43.64839" lon="6.78005">
        <ele>392</ele>
        <time>2023-04-26T15:33:25.000Z</time>
      </trkpt>
      <trkpt lat="43.64838" lon="6.78">
        <ele>393</ele>
        <time>2023-04-26T15:33:38.000Z</time>
      </trkpt>
      <trkpt lat="43.64824" lon="6.78005">
        <ele>394</ele>
        <time>2023-04-26T15:33:50.000Z</time>
      </trkpt>
      <trkpt lat="43.64811" lon="6.78002">
        <ele>395</ele>
        <time>2023-04-26T15:34:02.000Z</time>
      </trkpt>
      <trkpt lat="43.64806" lon="6.77993">
        <ele>397</ele>
        <time>2023-04-26T15:34:14.000Z</time>
      </trkpt>
      <trkpt lat="43.64789" lon="6.77998">
        <ele>398</ele>
        <time>2023-04-26T15:34:27.000Z</time>
      </trkpt>
      <trkpt lat="43.64778" lon="6.77992">
        <ele>399</ele>
        <time>2023-04-26T15:34:39.000Z</time>
      </trkpt>
      <trkpt lat="43.64767" lon="6.77997">
        <ele>399</ele>
        <time>2023-04-26T15:34:51.000Z</time>
      </trkpt>
      <trkpt lat="43.64758" lon="6.78008">
        <ele>400</ele>
        <time>2023-04-26T15:35:03.000Z</time>
      </trkpt>
      <trkpt lat="43.64739" lon="6.77991">
        <ele>400.9</ele>
        <time>2023-04-26T15:35:14.000Z</time>
      </trkpt>
      <trkpt lat="43.6472" lon="6.77979">
        <ele>402</ele>
        <time>2023-04-26T15:35:25.000Z</time>
      </trkpt>
      <trkpt lat="43.64714" lon="6.77992">
        <ele>403</ele>
        <time>2023-04-26T15:35:37.000Z</time>
      </trkpt>
      <trkpt lat="43.64713" lon="6.78001">
        <ele>404</ele>
        <time>2023-04-26T15:35:52.000Z</time>
      </trkpt>
      <trkpt lat="43.64724" lon="6.78005">
        <ele>406</ele>
        <time>2023-04-26T15:36:05.000Z</time>
      </trkpt>
      <trkpt lat="43.64722" lon="6.78022">
        <ele>407</ele>
        <time>2023-04-26T15:36:17.000Z</time>
      </trkpt>
      <trkpt lat="43.64727" lon="6.78016">
        <ele>408</ele>
        <time>2023-04-26T15:36:29.000Z</time>
      </trkpt>
      <trkpt lat="43.64714" lon="6.78025">
        <ele>410</ele>
        <time>2023-04-26T15:36:45.000Z</time>
      </trkpt>
      <trkpt lat="43.64712" lon="6.78028">
        <ele>412</ele>
        <time>2023-04-26T15:36:57.000Z</time>
      </trkpt>
      <trkpt lat="43.6471" lon="6.78028">
        <ele>413</ele>
        <time>2023-04-26T15:37:09.000Z</time>
      </trkpt>
      <trkpt lat="43.64714" lon="6.78023">
        <ele>414</ele>
        <time>2023-04-26T15:37:21.000Z</time>
      </trkpt>
      <trkpt lat="43.64716" lon="6.78013">
        <ele>416</ele>
        <time>2023-04-26T15:37:33.000Z</time>
      </trkpt>
      <trkpt lat="43.64714" lon="6.78002">
        <ele>416.9</ele>
        <time>2023-04-26T15:37:43.000Z</time>
      </trkpt>
      <trkpt lat="43.64714" lon="6.78001">
        <ele>417.1</ele>
        <time>2023-04-26T15:37:53.000Z</time>
      </trkpt>
      <trkpt lat="43.64711" lon="6.78002">
        <ele>417.2</ele>
        <time>2023-04-26T15:38:03.000Z</time>
      </trkpt>
      <trkpt lat="43.64709" lon="6.78">
        <ele>417.2</ele>
        <time>2023-04-26T15:38:13.000Z</time>
      </trkpt>
      <trkpt lat="43.6471" lon="6.77997">
        <ele>417</ele>
        <time>2023-04-26T15:38:23.000Z</time>
      </trkpt>
      <trkpt lat="43.64708" lon="6.78">
        <ele>417.1</ele>
        <time>2023-04-26T15:38:33.000Z</time>
      </trkpt>
      <trkpt lat="43.64713" lon="6.78001">
        <ele>417.5</ele>
        <time>2023-04-26T15:38:43.000Z</time>
      </trkpt>
      <trkpt lat="43.64715" lon="6.78001">
        <ele>417.5</ele>
        <time>2023-04-26T15:38:53.000Z</time>
      </trkpt>
      <trkpt lat="43.64714" lon="6.78006">
        <ele>417.3</ele>
        <time>2023-04-26T15:39:03.000Z</time>
      </trkpt>
      <trkpt lat="43.64715" lon="6.7801">
        <ele>416.9</ele>
        <time>2023-04-26T15:39:13.000Z</time>
      </trkpt>
      <trkpt lat="43.64717" lon="6.78009">
        <ele>416.8</ele>
        <time>2023-04-26T15:39:23.000Z</time>
      </trkpt>
      <trkpt lat="43.6472" lon="6.78009">
        <ele>417.2</ele>
        <time>2023-04-26T15:39:33.000Z</time>
      </trkpt>
      <trkpt lat="43.64718" lon="6.78012">
        <ele>417.4</ele>
        <time>2023-04-26T15:39:43.000Z</time>
      </trkpt>
      <trkpt lat="43.64716" lon="6.78015">
        <ele>417.7</ele>
        <time>2023-04-26T15:39:53.000Z</time>
      </trkpt>
      <trkpt lat="43.64716" lon="6.78014">
        <ele>416.8</ele>
        <time>2023-04-26T15:40:03.000Z</time>
      </trkpt>
      <trkpt lat="43.64714" lon="6.78014">
        <ele>417.2</ele>
        <time>2023-04-26T15:40:13.000Z</time>
      </trkpt>
      <trkpt lat="43.64713" lon="6.78015">
        <ele>417.4</ele>
        <time>2023-04-26T15:40:23.000Z</time>
      </trkpt>
      <trkpt lat="43.64718" lon="6.78011">
        <ele>417.1</ele>
        <time>2023-04-26T15:40:33.000Z</time>
      </trkpt>
      <trkpt lat="43.64718" lon="6.7801">
        <ele>416.5</ele>
        <time>2023-04-26T15:40:43.000Z</time>
      </trkpt>
      <trkpt lat="43.64717" lon="6.78012">
        <ele>417.3</ele>
        <time>2023-04-26T15:40:53.000Z</time>
      </trkpt>
      <trkpt lat="43.64717" lon="6.78011">
        <ele>414.8</ele>
        <time>2023-04-26T15:41:03.000Z</time>
      </trkpt>
      <trkpt lat="43.64717" lon="6.78011">
        <ele>417</ele>
        <time>2023-04-26T15:41:13.000Z</time>
      </trkpt>
      <trkpt lat="43.64718" lon="6.78008">
        <ele>417</ele>
        <time>2023-04-26T15:41:23.000Z</time>
      </trkpt>
      <trkpt lat="43.64718" lon="6.78005">
        <ele>417.1</ele>
        <time>2023-04-26T15:41:33.000Z</time>
      </trkpt>
      <trkpt lat="43.64716" lon="6.78004">
        <ele>416.9</ele>
        <time>2023-04-26T15:41:43.000Z</time>
      </trkpt>
      <trkpt lat="43.6471" lon="6.78003">
        <ele>415.9</ele>
        <time>2023-04-26T15:41:53.000Z</time>
      </trkpt>
      <trkpt lat="43.64705" lon="6.78004">
        <ele>417.8</ele>
        <time>2023-04-26T15:42:03.000Z</time>
      </trkpt>
      <trkpt lat="43.64704" lon="6.78008">
        <ele>418.3</ele>
        <time>2023-04-26T15:42:13.000Z</time>
      </trkpt>
      <trkpt lat="43.64705" lon="6.78003">
        <ele>419.1</ele>
        <time>2023-04-26T15:42:23.000Z</time>
      </trkpt>
      <trkpt lat="43.64712" lon="6.77995">
        <ele>420.8</ele>
        <time>2023-04-26T15:42:33.000Z</time>
      </trkpt>
      <trkpt lat="43.64711" lon="6.77984">
        <ele>421.7</ele>
        <time>2023-04-26T15:42:43.000Z</time>
      </trkpt>
      <trkpt lat="43.64712" lon="6.77967">
        <ele>423</ele>
        <time>2023-04-26T15:42:54.000Z</time>
      </trkpt>
      <trkpt lat="43.64711" lon="6.77953">
        <ele>424.5</ele>
        <time>2023-04-26T15:43:04.000Z</time>
      </trkpt>
      <trkpt lat="43.64713" lon="6.77943">
        <ele>425</ele>
        <time>2023-04-26T15:43:14.000Z</time>
      </trkpt>
      <trkpt lat="43.64713" lon="6.77927">
        <ele>425.9</ele>
        <time>2023-04-26T15:43:24.000Z</time>
      </trkpt>
      <trkpt lat="43.64703" lon="6.77911">
        <ele>426.3</ele>
        <time>2023-04-26T15:43:34.000Z</time>
      </trkpt>
      <trkpt lat="43.64701" lon="6.77896">
        <ele>426.1</ele>
        <time>2023-04-26T15:43:44.000Z</time>
      </trkpt>
      <trkpt lat="43.64704" lon="6.77883">
        <ele>426.1</ele>
        <time>2023-04-26T15:43:54.000Z</time>
      </trkpt>
      <trkpt lat="43.64708" lon="6.77869">
        <ele>426.4</ele>
        <time>2023-04-26T15:44:04.000Z</time>
      </trkpt>
      <trkpt lat="43.64695" lon="6.77855">
        <ele>425.9</ele>
        <time>2023-04-26T15:44:14.000Z</time>
      </trkpt>
      <trkpt lat="43.64695" lon="6.77845">
        <ele>425.4</ele>
        <time>2023-04-26T15:44:24.000Z</time>
      </trkpt>
      <trkpt lat="43.64684" lon="6.77832">
        <ele>424.4</ele>
        <time>2023-04-26T15:44:34.000Z</time>
      </trkpt>
      <trkpt lat="43.64678" lon="6.77828">
        <ele>424.1</ele>
        <time>2023-04-26T15:44:44.000Z</time>
      </trkpt>
      <trkpt lat="43.64675" lon="6.77825">
        <ele>423.9</ele>
        <time>2023-04-26T15:44:54.000Z</time>
      </trkpt>
      <trkpt lat="43.64671" lon="6.77818">
        <ele>423</ele>
        <time>2023-04-26T15:45:05.000Z</time>
      </trkpt>
      <trkpt lat="43.64664" lon="6.77812">
        <ele>422.1</ele>
        <time>2023-04-26T15:45:15.000Z</time>
      </trkpt>
      <trkpt lat="43.64657" lon="6.77803">
        <ele>420.9</ele>
        <time>2023-04-26T15:45:25.000Z</time>
      </trkpt>
      <trkpt lat="43.64649" lon="6.77791">
        <ele>419.7</ele>
        <time>2023-04-26T15:45:35.000Z</time>
      </trkpt>
      <trkpt lat="43.64636" lon="6.77788">
        <ele>418</ele>
        <time>2023-04-26T15:45:45.000Z</time>
      </trkpt>
      <trkpt lat="43.6463" lon="6.77788">
        <ele>418</ele>
        <time>2023-04-26T15:45:55.000Z</time>
      </trkpt>
      <trkpt lat="43.64627" lon="6.77785">
        <ele>416.7</ele>
        <time>2023-04-26T15:46:05.000Z</time>
      </trkpt>
      <trkpt lat="43.64625" lon="6.7778">
        <ele>415</ele>
        <time>2023-04-26T15:46:15.000Z</time>
      </trkpt>
      <trkpt lat="43.64617" lon="6.77777">
        <ele>414.5</ele>
        <time>2023-04-26T15:46:25.000Z</time>
      </trkpt>
      <trkpt lat="43.64608" lon="6.77778">
        <ele>413.9</ele>
        <time>2023-04-26T15:46:35.000Z</time>
      </trkpt>
      <trkpt lat="43.64597" lon="6.77785">
        <ele>413.8</ele>
        <time>2023-04-26T15:46:45.000Z</time>
      </trkpt>
      <trkpt lat="43.64588" lon="6.7779">
        <ele>413.4</ele>
        <time>2023-04-26T15:46:55.000Z</time>
      </trkpt>
      <trkpt lat="43.64582" lon="6.77797">
        <ele>412.9</ele>
        <time>2023-04-26T15:47:05.000Z</time>
      </trkpt>
      <trkpt lat="43.64575" lon="6.77807">
        <ele>412.1</ele>
        <time>2023-04-26T15:47:15.000Z</time>
      </trkpt>
      <trkpt lat="43.64569" lon="6.77807">
        <ele>410</ele>
        <time>2023-04-26T15:47:25.000Z</time>
      </trkpt>
      <trkpt lat="43.64557" lon="6.77808">
        <ele>409.9</ele>
        <time>2023-04-26T15:47:35.000Z</time>
      </trkpt>
      <trkpt lat="43.64552" lon="6.77815">
        <ele>408.9</ele>
        <time>2023-04-26T15:47:45.000Z</time>
      </trkpt>
      <trkpt lat="43.64543" lon="6.77827">
        <ele>407.8</ele>
        <time>2023-04-26T15:47:55.000Z</time>
      </trkpt>
      <trkpt lat="43.64539" lon="6.77835">
        <ele>407.2</ele>
        <time>2023-04-26T15:48:05.000Z</time>
      </trkpt>
      <trkpt lat="43.64543" lon="6.77853">
        <ele>406.6</ele>
        <time>2023-04-26T15:48:15.000Z</time>
      </trkpt>
      <trkpt lat="43.64527" lon="6.77855">
        <ele>405.7</ele>
        <time>2023-04-26T15:48:25.000Z</time>
      </trkpt>
      <trkpt lat="43.64515" lon="6.77857">
        <ele>404.7</ele>
        <time>2023-04-26T15:48:35.000Z</time>
      </trkpt>
      <trkpt lat="43.64509" lon="6.77865">
        <ele>404.2</ele>
        <time>2023-04-26T15:48:45.000Z</time>
      </trkpt>
      <trkpt lat="43.64505" lon="6.7787">
        <ele>403.6</ele>
        <time>2023-04-26T15:48:55.000Z</time>
      </trkpt>
      <trkpt lat="43.64499" lon="6.77874">
        <ele>402.5</ele>
        <time>2023-04-26T15:49:05.000Z</time>
      </trkpt>
      <trkpt lat="43.64495" lon="6.77889">
        <ele>401.7</ele>
        <time>2023-04-26T15:49:15.000Z</time>
      </trkpt>
      <trkpt lat="43.64499" lon="6.77913">
        <ele>400.8</ele>
        <time>2023-04-26T15:49:25.000Z</time>
      </trkpt>
      <trkpt lat="43.64488" lon="6.77908">
        <ele>399.5</ele>
        <time>2023-04-26T15:49:35.000Z</time>
      </trkpt>
      <trkpt lat="43.64478" lon="6.77904">
        <ele>398.4</ele>
        <time>2023-04-26T15:49:45.000Z</time>
      </trkpt>
      <trkpt lat="43.64472" lon="6.77905">
        <ele>396.7</ele>
        <time>2023-04-26T15:49:55.000Z</time>
      </trkpt>
      <trkpt lat="43.64464" lon="6.77911">
        <ele>395.3</ele>
        <time>2023-04-26T15:50:05.000Z</time>
      </trkpt>
      <trkpt lat="43.64456" lon="6.77914">
        <ele>394.6</ele>
        <time>2023-04-26T15:50:15.000Z</time>
      </trkpt>
      <trkpt lat="43.64447" lon="6.77908">
        <ele>393.3</ele>
        <time>2023-04-26T15:50:25.000Z</time>
      </trkpt>
      <trkpt lat="43.64446" lon="6.77911">
        <ele>391</ele>
        <time>2023-04-26T15:50:35.000Z</time>
      </trkpt>
      <trkpt lat="43.64433" lon="6.77915">
        <ele>390.5</ele>
        <time>2023-04-26T15:50:45.000Z</time>
      </trkpt>
      <trkpt lat="43.64419" lon="6.77921">
        <ele>389.6</ele>
        <time>2023-04-26T15:50:55.000Z</time>
      </trkpt>
      <trkpt lat="43.64411" lon="6.77925">
        <ele>388.8</ele>
        <time>2023-04-26T15:51:05.000Z</time>
      </trkpt>
      <trkpt lat="43.64402" lon="6.77929">
        <ele>387.7</ele>
        <time>2023-04-26T15:51:15.000Z</time>
      </trkpt>
      <trkpt lat="43.64391" lon="6.77924">
        <ele>386.6</ele>
        <time>2023-04-26T15:51:25.000Z</time>
      </trkpt>
      <trkpt lat="43.64383" lon="6.77925">
        <ele>385.8</ele>
        <time>2023-04-26T15:51:35.000Z</time>
      </trkpt>
      <trkpt lat="43.64373" lon="6.77921">
        <ele>384.8</ele>
        <time>2023-04-26T15:51:46.000Z</time>
      </trkpt>
      <trkpt lat="43.64371" lon="6.77913">
        <ele>383.9</ele>
        <time>2023-04-26T15:51:56.000Z</time>
      </trkpt>
      <trkpt lat="43.6437" lon="6.77896">
        <ele>383.5</ele>
        <time>2023-04-26T15:52:06.000Z</time>
      </trkpt>
      <trkpt lat="43.64371" lon="6.77884">
        <ele>383</ele>
        <time>2023-04-26T15:52:17.000Z</time>
      </trkpt>
      <trkpt lat="43.64365" lon="6.77869">
        <ele>383.1</ele>
        <time>2023-04-26T15:52:27.000Z</time>
      </trkpt>
      <trkpt lat="43.64367" lon="6.77854">
        <ele>383</ele>
        <time>2023-04-26T15:52:37.000Z</time>
      </trkpt>
      <trkpt lat="43.64372" lon="6.77842">
        <ele>383.1</ele>
        <time>2023-04-26T15:52:47.000Z</time>
      </trkpt>
      <trkpt lat="43.64373" lon="6.77827">
        <ele>383.5</ele>
        <time>2023-04-26T15:52:57.000Z</time>
      </trkpt>
      <trkpt lat="43.64351" lon="6.77807">
        <ele>383</ele>
        <time>2023-04-26T15:53:08.000Z</time>
      </trkpt>
      <trkpt lat="43.64324" lon="6.77787">
        <ele>383</ele>
        <time>2023-04-26T15:53:18.000Z</time>
      </trkpt>
      <trkpt lat="43.6435" lon="6.77774">
        <ele>383.6</ele>
        <time>2023-04-26T15:53:28.000Z</time>
      </trkpt>
      <trkpt lat="43.64361" lon="6.77768">
        <ele>383.5</ele>
        <time>2023-04-26T15:53:38.000Z</time>
      </trkpt>
      <trkpt lat="43.64366" lon="6.77756">
        <ele>383.8</ele>
        <time>2023-04-26T15:53:48.000Z</time>
      </trkpt>
      <trkpt lat="43.64364" lon="6.7774">
        <ele>384</ele>
        <time>2023-04-26T15:53:58.000Z</time>
      </trkpt>
      <trkpt lat="43.6436" lon="6.77725">
        <ele>384.2</ele>
        <time>2023-04-26T15:54:08.000Z</time>
      </trkpt>
      <trkpt lat="43.64359" lon="6.77711">
        <ele>384</ele>
        <time>2023-04-26T15:54:21.000Z</time>
      </trkpt>
      <trkpt lat="43.64355" lon="6.77704">
        <ele>384</ele>
        <time>2023-04-26T15:54:32.000Z</time>
      </trkpt>
      <trkpt lat="43.64343" lon="6.77697">
        <ele>384.2</ele>
        <time>2023-04-26T15:54:42.000Z</time>
      </trkpt>
      <trkpt lat="43.64331" lon="6.77695">
        <ele>383.3</ele>
        <time>2023-04-26T15:54:52.000Z</time>
      </trkpt>
      <trkpt lat="43.64323" lon="6.77703">
        <ele>382.5</ele>
        <time>2023-04-26T15:55:02.000Z</time>
      </trkpt>
      <trkpt lat="43.6432" lon="6.77716">
        <ele>382.8</ele>
        <time>2023-04-26T15:55:12.000Z</time>
      </trkpt>
      <trkpt lat="43.64315" lon="6.7773">
        <ele>382.1</ele>
        <time>2023-04-26T15:55:22.000Z</time>
      </trkpt>
      <trkpt lat="43.64308" lon="6.77742">
        <ele>382</ele>
        <time>2023-04-26T15:55:32.000Z</time>
      </trkpt>
      <trkpt lat="43.64303" lon="6.77756">
        <ele>381.7</ele>
        <time>2023-04-26T15:55:42.000Z</time>
      </trkpt>
      <trkpt lat="43.64298" lon="6.77763">
        <ele>381.2</ele>
        <time>2023-04-26T15:55:52.000Z</time>
      </trkpt>
      <trkpt lat="43.64291" lon="6.77774">
        <ele>380.4</ele>
        <time>2023-04-26T15:56:02.000Z</time>
      </trkpt>
      <trkpt lat="43.64285" lon="6.77783">
        <ele>380</ele>
        <time>2023-04-26T15:56:12.000Z</time>
      </trkpt>
      <trkpt lat="43.64283" lon="6.7779">
        <ele>379</ele>
        <time>2023-04-26T15:56:23.000Z</time>
      </trkpt>
      <trkpt lat="43.64274" lon="6.77799">
        <ele>378.9</ele>
        <time>2023-04-26T15:56:33.000Z</time>
      </trkpt>
      <trkpt lat="43.64268" lon="6.77826">
        <ele>378.3</ele>
        <time>2023-04-26T15:56:50.000Z</time>
      </trkpt>
      <trkpt lat="43.64261" lon="6.77836">
        <ele>377.8</ele>
        <time>2023-04-26T15:57:00.000Z</time>
      </trkpt>
      <trkpt lat="43.64256" lon="6.77848">
        <ele>377.4</ele>
        <time>2023-04-26T15:57:10.000Z</time>
      </trkpt>
      <trkpt lat="43.64249" lon="6.77857">
        <ele>377.1</ele>
        <time>2023-04-26T15:57:20.000Z</time>
      </trkpt>
      <trkpt lat="43.64239" lon="6.77864">
        <ele>377</ele>
        <time>2023-04-26T15:57:30.000Z</time>
      </trkpt>
      <trkpt lat="43.6423" lon="6.77866">
        <ele>376.9</ele>
        <time>2023-04-26T15:57:40.000Z</time>
      </trkpt>
      <trkpt lat="43.6422" lon="6.77869">
        <ele>376.6</ele>
        <time>2023-04-26T15:57:50.000Z</time>
      </trkpt>
      <trkpt lat="43.64214" lon="6.77879">
        <ele>376.4</ele>
        <time>2023-04-26T15:58:00.000Z</time>
      </trkpt>
      <trkpt lat="43.6421" lon="6.77887">
        <ele>376.6</ele>
        <time>2023-04-26T15:58:10.000Z</time>
      </trkpt>
      <trkpt lat="43.64207" lon="6.77893">
        <ele>376.2</ele>
        <time>2023-04-26T15:58:20.000Z</time>
      </trkpt>
      <trkpt lat="43.64199" lon="6.77904">
        <ele>376.2</ele>
        <time>2023-04-26T15:58:30.000Z</time>
      </trkpt>
      <trkpt lat="43.64192" lon="6.77906">
        <ele>376.5</ele>
        <time>2023-04-26T15:58:40.000Z</time>
      </trkpt>
      <trkpt lat="43.64187" lon="6.77913">
        <ele>376.6</ele>
        <time>2023-04-26T15:58:50.000Z</time>
      </trkpt>
      <trkpt lat="43.64185" lon="6.7791">
        <ele>376.6</ele>
        <time>2023-04-26T15:59:00.000Z</time>
      </trkpt>
      <trkpt lat="43.64182" lon="6.7792">
        <ele>376.5</ele>
        <time>2023-04-26T15:59:10.000Z</time>
      </trkpt>
      <trkpt lat="43.6418" lon="6.77933">
        <ele>376.2</ele>
        <time>2023-04-26T15:59:22.000Z</time>
      </trkpt>
      <trkpt lat="43.64179" lon="6.77938">
        <ele>376.6</ele>
        <time>2023-04-26T15:59:32.000Z</time>
      </trkpt>
      <trkpt lat="43.64182" lon="6.77939">
        <ele>376.5</ele>
        <time>2023-04-26T15:59:42.000Z</time>
      </trkpt>
      <trkpt lat="43.64178" lon="6.77952">
        <ele>376.3</ele>
        <time>2023-04-26T15:59:52.000Z</time>
      </trkpt>
      <trkpt lat="43.64173" lon="6.77965">
        <ele>376.4</ele>
        <time>2023-04-26T16:00:02.000Z</time>
      </trkpt>
      <trkpt lat="43.64175" lon="6.77972">
        <ele>376.6</ele>
        <time>2023-04-26T16:00:12.000Z</time>
      </trkpt>
      <trkpt lat="43.64173" lon="6.77975">
        <ele>376.5</ele>
        <time>2023-04-26T16:00:22.000Z</time>
      </trkpt>
      <trkpt lat="43.64169" lon="6.77982">
        <ele>376.5</ele>
        <time>2023-04-26T16:00:32.000Z</time>
      </trkpt>
      <trkpt lat="43.64161" lon="6.7798">
        <ele>376.2</ele>
        <time>2023-04-26T16:00:42.000Z</time>
      </trkpt>
      <trkpt lat="43.64152" lon="6.77976">
        <ele>376.5</ele>
        <time>2023-04-26T16:00:52.000Z</time>
      </trkpt>
      <trkpt lat="43.64141" lon="6.77981">
        <ele>376.6</ele>
        <time>2023-04-26T16:01:02.000Z</time>
      </trkpt>
      <trkpt lat="43.6414" lon="6.7799">
        <ele>376.5</ele>
        <time>2023-04-26T16:01:12.000Z</time>
      </trkpt>
      <trkpt lat="43.64145" lon="6.77992">
        <ele>377.1</ele>
        <time>2023-04-26T16:01:22.000Z</time>
      </trkpt>
      <trkpt lat="43.64144" lon="6.77998">
        <ele>376.8</ele>
        <time>2023-04-26T16:01:32.000Z</time>
      </trkpt>
      <trkpt lat="43.64137" lon="6.78">
        <ele>377.5</ele>
        <time>2023-04-26T16:01:42.000Z</time>
      </trkpt>
      <trkpt lat="43.64126" lon="6.78008">
        <ele>377.1</ele>
        <time>2023-04-26T16:01:52.000Z</time>
      </trkpt>
      <trkpt lat="43.64114" lon="6.78014">
        <ele>377.1</ele>
        <time>2023-04-26T16:02:02.000Z</time>
      </trkpt>
      <trkpt lat="43.64108" lon="6.78027">
        <ele>377.4</ele>
        <time>2023-04-26T16:02:12.000Z</time>
      </trkpt>
      <trkpt lat="43.64098" lon="6.78041">
        <ele>377.7</ele>
        <time>2023-04-26T16:02:22.000Z</time>
      </trkpt>
      <trkpt lat="43.64087" lon="6.78044">
        <ele>378.1</ele>
        <time>2023-04-26T16:02:32.000Z</time>
      </trkpt>
      <trkpt lat="43.64075" lon="6.78057">
        <ele>378.2</ele>
        <time>2023-04-26T16:02:42.000Z</time>
      </trkpt>
      <trkpt lat="43.6407" lon="6.78071">
        <ele>378.7</ele>
        <time>2023-04-26T16:02:52.000Z</time>
      </trkpt>
      <trkpt lat="43.64068" lon="6.78078">
        <ele>379.4</ele>
        <time>2023-04-26T16:03:02.000Z</time>
      </trkpt>
      <trkpt lat="43.64061" lon="6.78085">
        <ele>379.6</ele>
        <time>2023-04-26T16:03:12.000Z</time>
      </trkpt>
      <trkpt lat="43.64066" lon="6.78086">
        <ele>379.5</ele>
        <time>2023-04-26T16:03:23.000Z</time>
      </trkpt>
      <trkpt lat="43.64068" lon="6.78085">
        <ele>379.7</ele>
        <time>2023-04-26T16:03:33.000Z</time>
      </trkpt>
      <trkpt lat="43.64069" lon="6.78082">
        <ele>379.6</ele>
        <time>2023-04-26T16:03:43.000Z</time>
      </trkpt>
      <trkpt lat="43.64068" lon="6.78082">
        <ele>379.6</ele>
        <time>2023-04-26T16:03:53.000Z</time>
      </trkpt>
      <trkpt lat="43.64067" lon="6.78085">
        <ele>379.8</ele>
        <time>2023-04-26T16:04:03.000Z</time>
      </trkpt>
      <trkpt lat="43.64066" lon="6.78086">
        <ele>379.7</ele>
        <time>2023-04-26T16:04:13.000Z</time>
      </trkpt>
      <trkpt lat="43.64064" lon="6.78086">
        <ele>379.5</ele>
        <time>2023-04-26T16:04:23.000Z</time>
      </trkpt>
      <trkpt lat="43.64063" lon="6.78086">
        <ele>379.6</ele>
        <time>2023-04-26T16:04:33.000Z</time>
      </trkpt>
      <trkpt lat="43.64062" lon="6.78088">
        <ele>379.6</ele>
        <time>2023-04-26T16:04:43.000Z</time>
      </trkpt>
      <trkpt lat="43.64063" lon="6.78089">
        <ele>379.6</ele>
        <time>2023-04-26T16:04:53.000Z</time>
      </trkpt>
      <trkpt lat="43.64066" lon="6.78091">
        <ele>380.2</ele>
        <time>2023-04-26T16:05:03.000Z</time>
      </trkpt>
      <trkpt lat="43.64069" lon="6.78091">
        <ele>379.6</ele>
        <time>2023-04-26T16:05:13.000Z</time>
      </trkpt>
      <trkpt lat="43.64076" lon="6.78085">
        <ele>379.7</ele>
        <time>2023-04-26T16:05:23.000Z</time>
      </trkpt>
      <trkpt lat="43.64074" lon="6.78085">
        <ele>380.3</ele>
        <time>2023-04-26T16:05:33.000Z</time>
      </trkpt>
      <trkpt lat="43.64066" lon="6.78093">
        <ele>380.2</ele>
        <time>2023-04-26T16:05:43.000Z</time>
      </trkpt>
      <trkpt lat="43.64055" lon="6.78103">
        <ele>380</ele>
        <time>2023-04-26T16:05:53.000Z</time>
      </trkpt>
      <trkpt lat="43.64047" lon="6.78112">
        <ele>380.2</ele>
        <time>2023-04-26T16:06:03.000Z</time>
      </trkpt>
      <trkpt lat="43.64038" lon="6.78121">
        <ele>380.5</ele>
        <time>2023-04-26T16:06:13.000Z</time>
      </trkpt>
      <trkpt lat="43.64031" lon="6.78132">
        <ele>380.9</ele>
        <time>2023-04-26T16:06:23.000Z</time>
      </trkpt>
      <trkpt lat="43.64023" lon="6.78141">
        <ele>381.4</ele>
        <time>2023-04-26T16:06:33.000Z</time>
      </trkpt>
      <trkpt lat="43.6401" lon="6.78149">
        <ele>381.7</ele>
        <time>2023-04-26T16:06:43.000Z</time>
      </trkpt>
      <trkpt lat="43.63997" lon="6.78156">
        <ele>381.6</ele>
        <time>2023-04-26T16:06:53.000Z</time>
      </trkpt>
      <trkpt lat="43.63985" lon="6.78162">
        <ele>381.9</ele>
        <time>2023-04-26T16:07:03.000Z</time>
      </trkpt>
      <trkpt lat="43.63975" lon="6.78171">
        <ele>381.8</ele>
        <time>2023-04-26T16:07:13.000Z</time>
      </trkpt>
      <trkpt lat="43.63968" lon="6.78186">
        <ele>381.6</ele>
        <time>2023-04-26T16:07:23.000Z</time>
      </trkpt>
      <trkpt lat="43.63968" lon="6.78202">
        <ele>381.6</ele>
        <time>2023-04-26T16:07:33.000Z</time>
      </trkpt>
      <trkpt lat="43.63968" lon="6.7822">
        <ele>381.2</ele>
        <time>2023-04-26T16:07:43.000Z</time>
      </trkpt>
      <trkpt lat="43.63968" lon="6.78237">
        <ele>380.9</ele>
        <time>2023-04-26T16:07:53.000Z</time>
      </trkpt>
      <trkpt lat="43.6397" lon="6.78248">
        <ele>380.3</ele>
        <time>2023-04-26T16:08:03.000Z</time>
      </trkpt>
      <trkpt lat="43.6397" lon="6.78261">
        <ele>380.3</ele>
        <time>2023-04-26T16:08:13.000Z</time>
      </trkpt>
      <trkpt lat="43.63957" lon="6.78275">
        <ele>380.1</ele>
        <time>2023-04-26T16:08:23.000Z</time>
      </trkpt>
      <trkpt lat="43.63946" lon="6.7829">
        <ele>379.7</ele>
        <time>2023-04-26T16:08:33.000Z</time>
      </trkpt>
      <trkpt lat="43.63944" lon="6.78306">
        <ele>379.3</ele>
        <time>2023-04-26T16:08:43.000Z</time>
      </trkpt>
      <trkpt lat="43.63935" lon="6.78313">
        <ele>379.3</ele>
        <time>2023-04-26T16:08:53.000Z</time>
      </trkpt>
      <trkpt lat="43.63933" lon="6.78315">
        <ele>378.8</ele>
        <time>2023-04-26T16:09:03.000Z</time>
      </trkpt>
      <trkpt lat="43.63928" lon="6.78316">
        <ele>378.4</ele>
        <time>2023-04-26T16:09:13.000Z</time>
      </trkpt>
      <trkpt lat="43.63915" lon="6.78318">
        <ele>378.1</ele>
        <time>2023-04-26T16:09:23.000Z</time>
      </trkpt>
      <trkpt lat="43.63906" lon="6.78326">
        <ele>377.9</ele>
        <time>2023-04-26T16:09:33.000Z</time>
      </trkpt>
      <trkpt lat="43.63894" lon="6.78328">
        <ele>377.5</ele>
        <time>2023-04-26T16:09:43.000Z</time>
      </trkpt>
      <trkpt lat="43.63888" lon="6.78336">
        <ele>377</ele>
        <time>2023-04-26T16:09:53.000Z</time>
      </trkpt>
      <trkpt lat="43.63875" lon="6.78335">
        <ele>376.9</ele>
        <time>2023-04-26T16:10:03.000Z</time>
      </trkpt>
      <trkpt lat="43.63861" lon="6.78332">
        <ele>376.4</ele>
        <time>2023-04-26T16:10:13.000Z</time>
      </trkpt>
      <trkpt lat="43.6385" lon="6.78333">
        <ele>375.9</ele>
        <time>2023-04-26T16:10:23.000Z</time>
      </trkpt>
      <trkpt lat="43.63833" lon="6.78337">
        <ele>375.6</ele>
        <time>2023-04-26T16:10:33.000Z</time>
      </trkpt>
      <trkpt lat="43.6382" lon="6.78342">
        <ele>376.1</ele>
        <time>2023-04-26T16:10:43.000Z</time>
      </trkpt>
      <trkpt lat="43.63809" lon="6.78349">
        <ele>377.1</ele>
        <time>2023-04-26T16:10:53.000Z</time>
      </trkpt>
      <trkpt lat="43.63795" lon="6.7835">
        <ele>377.8</ele>
        <time>2023-04-26T16:11:03.000Z</time>
      </trkpt>
      <trkpt lat="43.63782" lon="6.78349">
        <ele>378.2</ele>
        <time>2023-04-26T16:11:13.000Z</time>
      </trkpt>
      <trkpt lat="43.63766" lon="6.78344">
        <ele>378.5</ele>
        <time>2023-04-26T16:11:23.000Z</time>
      </trkpt>
      <trkpt lat="43.63757" lon="6.78338">
        <ele>379.6</ele>
        <time>2023-04-26T16:11:33.000Z</time>
      </trkpt>
      <trkpt lat="43.63749" lon="6.78334">
        <ele>379.9</ele>
        <time>2023-04-26T16:11:43.000Z</time>
      </trkpt>
      <trkpt lat="43.63738" lon="6.78332">
        <ele>380.4</ele>
        <time>2023-04-26T16:11:53.000Z</time>
      </trkpt>
      <trkpt lat="43.63727" lon="6.78324">
        <ele>381.4</ele>
        <time>2023-04-26T16:12:03.000Z</time>
      </trkpt>
      <trkpt lat="43.63713" lon="6.78321">
        <ele>381.7</ele>
        <time>2023-04-26T16:12:13.000Z</time>
      </trkpt>
      <trkpt lat="43.63704" lon="6.78316">
        <ele>381.7</ele>
        <time>2023-04-26T16:12:23.000Z</time>
      </trkpt>
      <trkpt lat="43.63697" lon="6.78309">
        <ele>381.2</ele>
        <time>2023-04-26T16:12:33.000Z</time>
      </trkpt>
      <trkpt lat="43.6369" lon="6.78304">
        <ele>382.3</ele>
        <time>2023-04-26T16:12:43.000Z</time>
      </trkpt>
      <trkpt lat="43.6368" lon="6.78297">
        <ele>382.6</ele>
        <time>2023-04-26T16:12:53.000Z</time>
      </trkpt>
      <trkpt lat="43.63673" lon="6.78288">
        <ele>382.7</ele>
        <time>2023-04-26T16:13:03.000Z</time>
      </trkpt>
      <trkpt lat="43.63666" lon="6.78287">
        <ele>383.1</ele>
        <time>2023-04-26T16:13:13.000Z</time>
      </trkpt>
      <trkpt lat="43.63658" lon="6.78281">
        <ele>382.8</ele>
        <time>2023-04-26T16:13:23.000Z</time>
      </trkpt>
      <trkpt lat="43.63654" lon="6.78279">
        <ele>382.8</ele>
        <time>2023-04-26T16:13:33.000Z</time>
      </trkpt>
      <trkpt lat="43.63644" lon="6.78272">
        <ele>382.9</ele>
        <time>2023-04-26T16:13:43.000Z</time>
      </trkpt>
      <trkpt lat="43.63636" lon="6.78268">
        <ele>383.2</ele>
        <time>2023-04-26T16:13:53.000Z</time>
      </trkpt>
      <trkpt lat="43.63629" lon="6.78265">
        <ele>382.4</ele>
        <time>2023-04-26T16:14:03.000Z</time>
      </trkpt>
      <trkpt lat="43.63614" lon="6.78256">
        <ele>381.7</ele>
        <time>2023-04-26T16:14:13.000Z</time>
      </trkpt>
      <trkpt lat="43.636" lon="6.78241">
        <ele>380.9</ele>
        <time>2023-04-26T16:14:23.000Z</time>
      </trkpt>
      <trkpt lat="43.63589" lon="6.78237">
        <ele>380.7</ele>
        <time>2023-04-26T16:14:33.000Z</time>
      </trkpt>
      <trkpt lat="43.63582" lon="6.78234">
        <ele>381</ele>
        <time>2023-04-26T16:14:43.000Z</time>
      </trkpt>
      <trkpt lat="43.6357" lon="6.78231">
        <ele>381.2</ele>
        <time>2023-04-26T16:14:53.000Z</time>
      </trkpt>
      <trkpt lat="43.63559" lon="6.78224">
        <ele>381.6</ele>
        <time>2023-04-26T16:15:03.000Z</time>
      </trkpt>
      <trkpt lat="43.63549" lon="6.78216">
        <ele>381.8</ele>
        <time>2023-04-26T16:15:13.000Z</time>
      </trkpt>
      <trkpt lat="43.63534" lon="6.7821">
        <ele>382</ele>
        <time>2023-04-26T16:15:23.000Z</time>
      </trkpt>
      <trkpt lat="43.6352" lon="6.78205">
        <ele>382.8</ele>
        <time>2023-04-26T16:15:33.000Z</time>
      </trkpt>
      <trkpt lat="43.63502" lon="6.78202">
        <ele>383.6</ele>
        <time>2023-04-26T16:15:43.000Z</time>
      </trkpt>
      <trkpt lat="43.63486" lon="6.7821">
        <ele>384.2</ele>
        <time>2023-04-26T16:15:53.000Z</time>
      </trkpt>
      <trkpt lat="43.63474" lon="6.78215">
        <ele>384.9</ele>
        <time>2023-04-26T16:16:03.000Z</time>
      </trkpt>
      <trkpt lat="43.63463" lon="6.78216">
        <ele>385.7</ele>
        <time>2023-04-26T16:16:13.000Z</time>
      </trkpt>
      <trkpt lat="43.6345" lon="6.78211">
        <ele>386</ele>
        <time>2023-04-26T16:16:23.000Z</time>
      </trkpt>
      <trkpt lat="43.63436" lon="6.78212">
        <ele>386.5</ele>
        <time>2023-04-26T16:16:33.000Z</time>
      </trkpt>
      <trkpt lat="43.63426" lon="6.78213">
        <ele>387</ele>
        <time>2023-04-26T16:16:43.000Z</time>
      </trkpt>
      <trkpt lat="43.63414" lon="6.78215">
        <ele>387.3</ele>
        <time>2023-04-26T16:16:53.000Z</time>
      </trkpt>
      <trkpt lat="43.63403" lon="6.78214">
        <ele>387.9</ele>
        <time>2023-04-26T16:17:03.000Z</time>
      </trkpt>
      <trkpt lat="43.63386" lon="6.78212">
        <ele>388.7</ele>
        <time>2023-04-26T16:17:13.000Z</time>
      </trkpt>
      <trkpt lat="43.63375" lon="6.78212">
        <ele>389.2</ele>
        <time>2023-04-26T16:17:23.000Z</time>
      </trkpt>
      <trkpt lat="43.63365" lon="6.78213">
        <ele>389.1</ele>
        <time>2023-04-26T16:17:33.000Z</time>
      </trkpt>
      <trkpt lat="43.63352" lon="6.78212">
        <ele>389</ele>
        <time>2023-04-26T16:17:43.000Z</time>
      </trkpt>
      <trkpt lat="43.63341" lon="6.78215">
        <ele>388.7</ele>
        <time>2023-04-26T16:17:53.000Z</time>
      </trkpt>
      <trkpt lat="43.6333" lon="6.78214">
        <ele>387.9</ele>
        <time>2023-04-26T16:18:03.000Z</time>
      </trkpt>
      <trkpt lat="43.63322" lon="6.78211">
        <ele>387.5</ele>
        <time>2023-04-26T16:18:13.000Z</time>
      </trkpt>
      <trkpt lat="43.63319" lon="6.7821">
        <ele>387.2</ele>
        <time>2023-04-26T16:18:23.000Z</time>
      </trkpt>
      <trkpt lat="43.6332" lon="6.7821">
        <ele>386.9</ele>
        <time>2023-04-26T16:18:28.000Z</time>
      </trkpt>
    </trkseg>
  </trk>
</gpx>